<?xml version='1.0' encoding='UTF-8'?><gpx version="1.1" creator="JPX - https://github.com/jenetics/jpx" xmlns="http://www.topografix.com/GPX/1/1"><trk><trkseg><trkpt lat="9.99155" lon="-84.1704541"><ele>990.0</ele><time>2026-04-02T21:37:44.923Z</time></trkpt><trkpt lat="9.99147" lon="-84.1704115"><ele>990.0</ele><time>2026-04-02T21:37:46.922Z</time></trkpt><trkpt lat="9.9914164" lon="-84.1703512"><ele>990.0</ele><time>2026-04-02T21:37:48.923Z</time></trkpt><trkpt lat="9.9913319" lon="-84.1703118"><ele>990.0</ele><time>2026-04-02T21:37:50.923Z</time></trkpt><trkpt lat="9.9911647" lon="-84.1704413"><ele>990.0</ele><time>2026-04-02T21:37:51.923Z</time></trkpt><trkpt lat="9.9910977" lon="-84.1704344"><ele>990.0</ele><time>2026-04-02T21:37:53.922Z</time></trkpt><trkpt lat="9.9911022" lon="-84.1705011"><ele>990.0</ele><time>2026-04-02T21:37:55.923Z</time></trkpt><trkpt lat="9.9911304" lon="-84.1705614"><ele>990.0</ele><time>2026-04-02T21:37:57.923Z</time></trkpt><trkpt lat="9.9910785" lon="-84.1703915"><ele>990.0</ele><time>2026-04-02T21:38:14.073Z</time></trkpt><trkpt lat="9.9909005" lon="-84.1702691"><ele>989.9999999999999</ele><time>2026-04-02T21:38:16.923Z</time></trkpt><trkpt lat="9.9909051" lon="-84.1702046"><ele>990.0</ele><time>2026-04-02T21:38:18.923Z</time></trkpt><trkpt lat="9.9909115" lon="-84.1701299"><ele>989.9999999999999</ele><time>2026-04-02T21:38:21.923Z</time></trkpt><trkpt lat="9.990925" lon="-84.1700595"><ele>989.9999999999999</ele><time>2026-04-02T21:38:52.924Z</time></trkpt><trkpt lat="9.9908782" lon="-84.1699947"><ele>990.0</ele><time>2026-04-02T21:39:03.923Z</time></trkpt><trkpt lat="9.9908229" lon="-84.1699551"><ele>989.9999999999999</ele><time>2026-04-02T21:39:08.923Z</time></trkpt><trkpt lat="9.9907628" lon="-84.1699182"><ele>989.9999999999999</ele><time>2026-04-02T21:39:34.923Z</time></trkpt><trkpt lat="9.9906891" lon="-84.1698446"><ele>989.2</ele><time>2026-04-02T21:39:44.922Z</time></trkpt><trkpt lat="9.9906871" lon="-84.1697303"><ele>988.4</ele><time>2026-04-02T21:39:46.922Z</time></trkpt><trkpt lat="9.9907158" lon="-84.1696432"><ele>987.5999999999999</ele><time>2026-04-02T21:39:47.923Z</time></trkpt><trkpt lat="9.9907426" lon="-84.1695507"><ele>986.8</ele><time>2026-04-02T21:39:48.922Z</time></trkpt><trkpt lat="9.9907759" lon="-84.1694508"><ele>986.0</ele><time>2026-04-02T21:39:49.922Z</time></trkpt><trkpt lat="9.9908154" lon="-84.1693422"><ele>987.25</ele><time>2026-04-02T21:39:50.922Z</time></trkpt><trkpt lat="9.9908573" lon="-84.1692228"><ele>988.5</ele><time>2026-04-02T21:39:51.922Z</time></trkpt><trkpt lat="9.9909049" lon="-84.1691051"><ele>989.75</ele><time>2026-04-02T21:39:52.922Z</time></trkpt><trkpt lat="9.9909447" lon="-84.1689686"><ele>991.0</ele><time>2026-04-02T21:39:53.922Z</time></trkpt><trkpt lat="9.9909858" lon="-84.1688302"><ele>991.0</ele><time>2026-04-02T21:39:54.922Z</time></trkpt><trkpt lat="9.9910335" lon="-84.16869"><ele>991.0</ele><time>2026-04-02T21:39:55.923Z</time></trkpt><trkpt lat="9.9910742" lon="-84.168559"><ele>991.0</ele><time>2026-04-02T21:39:56.922Z</time></trkpt><trkpt lat="9.9911184" lon="-84.1684409"><ele>991.0</ele><time>2026-04-02T21:39:57.922Z</time></trkpt><trkpt lat="9.9911591" lon="-84.1683335"><ele>991.0</ele><time>2026-04-02T21:39:58.922Z</time></trkpt><trkpt lat="9.9911941" lon="-84.1682296"><ele>990.9999999999999</ele><time>2026-04-02T21:39:59.923Z</time></trkpt><trkpt lat="9.9912281" lon="-84.1681258"><ele>990.9999999999999</ele><time>2026-04-02T21:40:00.922Z</time></trkpt><trkpt lat="9.9912661" lon="-84.1680266"><ele>991.0</ele><time>2026-04-02T21:40:01.922Z</time></trkpt><trkpt lat="9.9913017" lon="-84.1679118"><ele>991.0</ele><time>2026-04-02T21:40:02.922Z</time></trkpt><trkpt lat="9.9913413" lon="-84.1677982"><ele>991.0</ele><time>2026-04-02T21:40:03.921Z</time></trkpt><trkpt lat="9.9913828" lon="-84.1676795"><ele>991.0</ele><time>2026-04-02T21:40:04.923Z</time></trkpt><trkpt lat="9.9914232" lon="-84.1675568"><ele>991.0</ele><time>2026-04-02T21:40:05.923Z</time></trkpt><trkpt lat="9.9914605" lon="-84.1674481"><ele>991.0</ele><time>2026-04-02T21:40:06.922Z</time></trkpt><trkpt lat="9.9914927" lon="-84.1673447"><ele>990.4</ele><time>2026-04-02T21:40:07.923Z</time></trkpt><trkpt lat="9.9915259" lon="-84.1672456"><ele>989.8</ele><time>2026-04-02T21:40:08.922Z</time></trkpt><trkpt lat="9.9915596" lon="-84.167153"><ele>989.1999999999999</ele><time>2026-04-02T21:40:09.921Z</time></trkpt><trkpt lat="9.991586" lon="-84.1670691"><ele>988.5999999999999</ele><time>2026-04-02T21:40:10.923Z</time></trkpt><trkpt lat="9.991616" lon="-84.1669716"><ele>988.0</ele><time>2026-04-02T21:40:12.922Z</time></trkpt><trkpt lat="9.9916457" lon="-84.1669052"><ele>988.0</ele><time>2026-04-02T21:40:14.922Z</time></trkpt><trkpt lat="9.9916703" lon="-84.1668308"><ele>988.0</ele><time>2026-04-02T21:40:17.922Z</time></trkpt><trkpt lat="9.9917005" lon="-84.1667663"><ele>988.0</ele><time>2026-04-02T21:40:28.922Z</time></trkpt><trkpt lat="9.9917304" lon="-84.1666803"><ele>988.0</ele><time>2026-04-02T21:40:31.921Z</time></trkpt><trkpt lat="9.9916998" lon="-84.166575"><ele>988.0</ele><time>2026-04-02T21:40:34.922Z</time></trkpt><trkpt lat="9.9915826" lon="-84.166516"><ele>987.0</ele><time>2026-04-02T21:40:36.922Z</time></trkpt><trkpt lat="9.9914902" lon="-84.1664795"><ele>986.0</ele><time>2026-04-02T21:40:37.922Z</time></trkpt><trkpt lat="9.991389" lon="-84.1664387"><ele>985.0</ele><time>2026-04-02T21:40:38.922Z</time></trkpt><trkpt lat="9.9912903" lon="-84.1663929"><ele>984.0</ele><time>2026-04-02T21:40:39.922Z</time></trkpt><trkpt lat="9.9911912" lon="-84.1663478"><ele>983.0</ele><time>2026-04-02T21:40:40.922Z</time></trkpt><trkpt lat="9.9910904" lon="-84.1662948"><ele>983.0</ele><time>2026-04-02T21:40:41.922Z</time></trkpt><trkpt lat="9.9909823" lon="-84.1662298"><ele>983.0</ele><time>2026-04-02T21:40:42.922Z</time></trkpt><trkpt lat="9.9908661" lon="-84.1661599"><ele>983.0</ele><time>2026-04-02T21:40:43.922Z</time></trkpt><trkpt lat="9.9907362" lon="-84.1660957"><ele>983.0</ele><time>2026-04-02T21:40:44.922Z</time></trkpt><trkpt lat="9.9905941" lon="-84.1660341"><ele>982.0</ele><time>2026-04-02T21:40:45.922Z</time></trkpt><trkpt lat="9.9904514" lon="-84.1659762"><ele>981.0</ele><time>2026-04-02T21:40:46.922Z</time></trkpt><trkpt lat="9.9903069" lon="-84.1659212"><ele>980.0</ele><time>2026-04-02T21:40:47.922Z</time></trkpt><trkpt lat="9.9901608" lon="-84.1658641"><ele>980.0</ele><time>2026-04-02T21:40:48.922Z</time></trkpt><trkpt lat="9.9900091" lon="-84.1658004"><ele>980.0</ele><time>2026-04-02T21:40:49.922Z</time></trkpt><trkpt lat="9.9898548" lon="-84.1657401"><ele>980.0</ele><time>2026-04-02T21:40:50.922Z</time></trkpt><trkpt lat="9.989689" lon="-84.165675"><ele>977.6666666666667</ele><time>2026-04-02T21:40:51.921Z</time></trkpt><trkpt lat="9.9895169" lon="-84.165601"><ele>975.3333333333333</ele><time>2026-04-02T21:40:52.921Z</time></trkpt><trkpt lat="9.9893409" lon="-84.1655249"><ele>973.0</ele><time>2026-04-02T21:40:53.922Z</time></trkpt><trkpt lat="9.9891533" lon="-84.1654413"><ele>973.0</ele><time>2026-04-02T21:40:54.922Z</time></trkpt><trkpt lat="9.9889567" lon="-84.1653586"><ele>973.0</ele><time>2026-04-02T21:40:55.922Z</time></trkpt><trkpt lat="9.988751" lon="-84.165277"><ele>973.0</ele><time>2026-04-02T21:40:56.922Z</time></trkpt><trkpt lat="9.9885434" lon="-84.1651946"><ele>972.5</ele><time>2026-04-02T21:40:57.922Z</time></trkpt><trkpt lat="9.9883192" lon="-84.1651089"><ele>972.0</ele><time>2026-04-02T21:40:58.922Z</time></trkpt><trkpt lat="9.9880797" lon="-84.1650135"><ele>972.0</ele><time>2026-04-02T21:40:59.921Z</time></trkpt><trkpt lat="9.9878258" lon="-84.1649148"><ele>972.0</ele><time>2026-04-02T21:41:00.922Z</time></trkpt><trkpt lat="9.9875572" lon="-84.1648168"><ele>973.5</ele><time>2026-04-02T21:41:01.922Z</time></trkpt><trkpt lat="9.9872863" lon="-84.1647148"><ele>975.0</ele><time>2026-04-02T21:41:02.922Z</time></trkpt><trkpt lat="9.9870089" lon="-84.1646153"><ele>975.0</ele><time>2026-04-02T21:41:03.922Z</time></trkpt><trkpt lat="9.9867239" lon="-84.1645084"><ele>975.0</ele><time>2026-04-02T21:41:04.922Z</time></trkpt><trkpt lat="9.9864381" lon="-84.1643997"><ele>975.5</ele><time>2026-04-02T21:41:05.921Z</time></trkpt><trkpt lat="9.9861714" lon="-84.1642974"><ele>976.0</ele><time>2026-04-02T21:41:06.922Z</time></trkpt><trkpt lat="9.9859087" lon="-84.1641961"><ele>979.0</ele><time>2026-04-02T21:41:07.922Z</time></trkpt><trkpt lat="9.9856396" lon="-84.1640931"><ele>982.0</ele><time>2026-04-02T21:41:08.922Z</time></trkpt><trkpt lat="9.9853661" lon="-84.1639912"><ele>982.5</ele><time>2026-04-02T21:41:09.922Z</time></trkpt><trkpt lat="9.9850924" lon="-84.1638918"><ele>983.0</ele><time>2026-04-02T21:41:10.922Z</time></trkpt><trkpt lat="9.984817" lon="-84.1637937"><ele>984.0</ele><time>2026-04-02T21:41:11.922Z</time></trkpt><trkpt lat="9.9845383" lon="-84.1636893"><ele>985.0</ele><time>2026-04-02T21:41:12.922Z</time></trkpt><trkpt lat="9.9842608" lon="-84.1635842"><ele>987.0</ele><time>2026-04-02T21:41:13.923Z</time></trkpt><trkpt lat="9.9839942" lon="-84.1634843"><ele>989.0</ele><time>2026-04-02T21:41:14.922Z</time></trkpt><trkpt lat="9.9837451" lon="-84.1633892"><ele>989.0</ele><time>2026-04-02T21:41:15.922Z</time></trkpt><trkpt lat="9.9835081" lon="-84.1632975"><ele>989.0</ele><time>2026-04-02T21:41:16.922Z</time></trkpt><trkpt lat="9.983277" lon="-84.1632098"><ele>993.0</ele><time>2026-04-02T21:41:17.922Z</time></trkpt><trkpt lat="9.9830377" lon="-84.1631137"><ele>997.0</ele><time>2026-04-02T21:41:18.922Z</time></trkpt><trkpt lat="9.9827948" lon="-84.1630126"><ele>997.0</ele><time>2026-04-02T21:41:19.921Z</time></trkpt><trkpt lat="9.9825637" lon="-84.1629091"><ele>997.0</ele><time>2026-04-02T21:41:20.921Z</time></trkpt><trkpt lat="9.9823404" lon="-84.1627895"><ele>998.0</ele><time>2026-04-02T21:41:21.922Z</time></trkpt><trkpt lat="9.9821269" lon="-84.1626635"><ele>999.0</ele><time>2026-04-02T21:41:22.922Z</time></trkpt><trkpt lat="9.9819291" lon="-84.1625345"><ele>999.0</ele><time>2026-04-02T21:41:23.921Z</time></trkpt><trkpt lat="9.9817347" lon="-84.1624119"><ele>999.0</ele><time>2026-04-02T21:41:24.922Z</time></trkpt><trkpt lat="9.9815634" lon="-84.1622944"><ele>999.0</ele><time>2026-04-02T21:41:25.922Z</time></trkpt><trkpt lat="9.9813973" lon="-84.1621725"><ele>1000.0</ele><time>2026-04-02T21:41:26.922Z</time></trkpt><trkpt lat="9.9812338" lon="-84.1620474"><ele>1001.0</ele><time>2026-04-02T21:41:27.922Z</time></trkpt><trkpt lat="9.9810792" lon="-84.1619288"><ele>1002.0</ele><time>2026-04-02T21:41:28.922Z</time></trkpt><trkpt lat="9.9809219" lon="-84.1617877"><ele>1000.3333333333333</ele><time>2026-04-02T21:41:29.923Z</time></trkpt><trkpt lat="9.9807717" lon="-84.161644"><ele>998.6666666666666</ele><time>2026-04-02T21:41:30.922Z</time></trkpt><trkpt lat="9.9806134" lon="-84.1614822"><ele>997.0</ele><time>2026-04-02T21:41:31.923Z</time></trkpt><trkpt lat="9.9804706" lon="-84.1613187"><ele>997.0</ele><time>2026-04-02T21:41:32.922Z</time></trkpt><trkpt lat="9.9803389" lon="-84.1611579"><ele>997.0</ele><time>2026-04-02T21:41:33.921Z</time></trkpt><trkpt lat="9.9802113" lon="-84.1609837"><ele>997.0</ele><time>2026-04-02T21:41:34.922Z</time></trkpt><trkpt lat="9.9800903" lon="-84.1608098"><ele>995.3333333333333</ele><time>2026-04-02T21:41:35.923Z</time></trkpt><trkpt lat="9.9799741" lon="-84.1606289"><ele>993.6666666666667</ele><time>2026-04-02T21:41:36.922Z</time></trkpt><trkpt lat="9.9798618" lon="-84.1604477"><ele>992.0</ele><time>2026-04-02T21:41:37.922Z</time></trkpt><trkpt lat="9.9797603" lon="-84.1602643"><ele>992.0</ele><time>2026-04-02T21:41:38.922Z</time></trkpt><trkpt lat="9.9796607" lon="-84.1600796"><ele>992.0</ele><time>2026-04-02T21:41:39.922Z</time></trkpt><trkpt lat="9.9795509" lon="-84.1598868"><ele>992.0</ele><time>2026-04-02T21:41:40.922Z</time></trkpt><trkpt lat="9.979451" lon="-84.1597068"><ele>991.3333333333334</ele><time>2026-04-02T21:41:41.922Z</time></trkpt><trkpt lat="9.9793484" lon="-84.159524"><ele>990.6666666666667</ele><time>2026-04-02T21:41:42.922Z</time></trkpt><trkpt lat="9.9792459" lon="-84.159334"><ele>990.0</ele><time>2026-04-02T21:41:43.922Z</time></trkpt><trkpt lat="9.9791416" lon="-84.1591416"><ele>988.6666666666667</ele><time>2026-04-02T21:41:44.922Z</time></trkpt><trkpt lat="9.979035" lon="-84.1589526"><ele>987.3333333333334</ele><time>2026-04-02T21:41:45.922Z</time></trkpt><trkpt lat="9.9789252" lon="-84.1587548"><ele>986.0</ele><time>2026-04-02T21:41:46.921Z</time></trkpt><trkpt lat="9.9788151" lon="-84.1585497"><ele>986.0</ele><time>2026-04-02T21:41:47.922Z</time></trkpt><trkpt lat="9.9787015" lon="-84.1583419"><ele>986.0</ele><time>2026-04-02T21:41:48.922Z</time></trkpt><trkpt lat="9.9785905" lon="-84.1581287"><ele>988.5</ele><time>2026-04-02T21:41:49.922Z</time></trkpt><trkpt lat="9.9784797" lon="-84.1579193"><ele>991.0</ele><time>2026-04-02T21:41:50.922Z</time></trkpt><trkpt lat="9.9783626" lon="-84.1577026"><ele>990.5</ele><time>2026-04-02T21:41:51.921Z</time></trkpt><trkpt lat="9.9782435" lon="-84.1574855"><ele>990.0</ele><time>2026-04-02T21:41:52.922Z</time></trkpt><trkpt lat="9.9781244" lon="-84.1572692"><ele>990.0</ele><time>2026-04-02T21:41:53.923Z</time></trkpt><trkpt lat="9.9780127" lon="-84.1570674"><ele>990.0</ele><time>2026-04-02T21:41:54.922Z</time></trkpt><trkpt lat="9.9779027" lon="-84.1568662"><ele>990.0</ele><time>2026-04-02T21:41:55.922Z</time></trkpt><trkpt lat="9.9777945" lon="-84.1566656"><ele>990.0</ele><time>2026-04-02T21:41:56.922Z</time></trkpt><trkpt lat="9.9776811" lon="-84.1564633"><ele>992.0</ele><time>2026-04-02T21:41:57.922Z</time></trkpt><trkpt lat="9.9775583" lon="-84.1562537"><ele>994.0</ele><time>2026-04-02T21:41:58.922Z</time></trkpt><trkpt lat="9.9774343" lon="-84.1560386"><ele>991.5</ele><time>2026-04-02T21:41:59.922Z</time></trkpt><trkpt lat="9.9773077" lon="-84.1558149"><ele>989.0</ele><time>2026-04-02T21:42:00.922Z</time></trkpt><trkpt lat="9.9771825" lon="-84.1555816"><ele>989.0</ele><time>2026-04-02T21:42:01.922Z</time></trkpt><trkpt lat="9.9770561" lon="-84.1553495"><ele>989.0</ele><time>2026-04-02T21:42:02.922Z</time></trkpt><trkpt lat="9.9769317" lon="-84.1551141"><ele>989.0</ele><time>2026-04-02T21:42:03.922Z</time></trkpt><trkpt lat="9.9768025" lon="-84.1548761"><ele>989.0</ele><time>2026-04-02T21:42:04.922Z</time></trkpt><trkpt lat="9.9766754" lon="-84.1546572"><ele>986.0</ele><time>2026-04-02T21:42:05.922Z</time></trkpt><trkpt lat="9.9765617" lon="-84.1544465"><ele>983.0</ele><time>2026-04-02T21:42:06.922Z</time></trkpt><trkpt lat="9.9764466" lon="-84.1542367"><ele>983.5</ele><time>2026-04-02T21:42:07.922Z</time></trkpt><trkpt lat="9.9763327" lon="-84.1540276"><ele>984.0</ele><time>2026-04-02T21:42:08.923Z</time></trkpt><trkpt lat="9.9762309" lon="-84.1538271"><ele>984.0</ele><time>2026-04-02T21:42:09.923Z</time></trkpt><trkpt lat="9.9761269" lon="-84.1536356"><ele>984.0</ele><time>2026-04-02T21:42:10.922Z</time></trkpt><trkpt lat="9.9760301" lon="-84.1534539"><ele>984.0</ele><time>2026-04-02T21:42:11.922Z</time></trkpt><trkpt lat="9.9759386" lon="-84.1532831"><ele>984.0</ele><time>2026-04-02T21:42:12.922Z</time></trkpt><trkpt lat="9.9758474" lon="-84.1531167"><ele>984.0</ele><time>2026-04-02T21:42:13.923Z</time></trkpt><trkpt lat="9.9757561" lon="-84.1529574"><ele>984.0</ele><time>2026-04-02T21:42:14.923Z</time></trkpt><trkpt lat="9.9756644" lon="-84.1527925"><ele>984.0</ele><time>2026-04-02T21:42:15.922Z</time></trkpt><trkpt lat="9.9755791" lon="-84.1526389"><ele>984.0</ele><time>2026-04-02T21:42:16.922Z</time></trkpt><trkpt lat="9.9754911" lon="-84.1524778"><ele>984.0</ele><time>2026-04-02T21:42:17.922Z</time></trkpt><trkpt lat="9.9754072" lon="-84.152323"><ele>984.6666666666667</ele><time>2026-04-02T21:42:18.922Z</time></trkpt><trkpt lat="9.9753232" lon="-84.1521688"><ele>985.3333333333334</ele><time>2026-04-02T21:42:19.921Z</time></trkpt><trkpt lat="9.975239" lon="-84.1520139"><ele>986.0</ele><time>2026-04-02T21:42:20.922Z</time></trkpt><trkpt lat="9.9751482" lon="-84.1518531"><ele>986.0</ele><time>2026-04-02T21:42:21.922Z</time></trkpt><trkpt lat="9.9750583" lon="-84.1516901"><ele>986.0</ele><time>2026-04-02T21:42:22.921Z</time></trkpt><trkpt lat="9.9749671" lon="-84.1515151"><ele>986.0</ele><time>2026-04-02T21:42:23.922Z</time></trkpt><trkpt lat="9.9748739" lon="-84.1513408"><ele>984.6666666666667</ele><time>2026-04-02T21:42:24.922Z</time></trkpt><trkpt lat="9.9747779" lon="-84.1511637"><ele>983.3333333333333</ele><time>2026-04-02T21:42:25.922Z</time></trkpt><trkpt lat="9.974684" lon="-84.1509874"><ele>982.0</ele><time>2026-04-02T21:42:26.923Z</time></trkpt><trkpt lat="9.9745893" lon="-84.1508014"><ele>982.6666666666666</ele><time>2026-04-02T21:42:27.923Z</time></trkpt><trkpt lat="9.9744959" lon="-84.1506098"><ele>983.3333333333333</ele><time>2026-04-02T21:42:28.923Z</time></trkpt><trkpt lat="9.9744051" lon="-84.1504141"><ele>984.0</ele><time>2026-04-02T21:42:29.922Z</time></trkpt><trkpt lat="9.9743182" lon="-84.1502138"><ele>984.0</ele><time>2026-04-02T21:42:30.921Z</time></trkpt><trkpt lat="9.9742301" lon="-84.1500101"><ele>984.0</ele><time>2026-04-02T21:42:31.922Z</time></trkpt><trkpt lat="9.9741407" lon="-84.1498078"><ele>984.0</ele><time>2026-04-02T21:42:32.921Z</time></trkpt><trkpt lat="9.9740529" lon="-84.1495981"><ele>985.3333333333333</ele><time>2026-04-02T21:42:33.922Z</time></trkpt><trkpt lat="9.9739673" lon="-84.1493835"><ele>986.6666666666666</ele><time>2026-04-02T21:42:34.922Z</time></trkpt><trkpt lat="9.9738846" lon="-84.1491778"><ele>988.0</ele><time>2026-04-02T21:42:35.922Z</time></trkpt><trkpt lat="9.9738102" lon="-84.1489783"><ele>989.3333333333333</ele><time>2026-04-02T21:42:36.922Z</time></trkpt><trkpt lat="9.9737374" lon="-84.1487845"><ele>990.6666666666667</ele><time>2026-04-02T21:42:37.921Z</time></trkpt><trkpt lat="9.9736643" lon="-84.1485897"><ele>992.0</ele><time>2026-04-02T21:42:38.922Z</time></trkpt><trkpt lat="9.9735921" lon="-84.1483928"><ele>993.6666666666667</ele><time>2026-04-02T21:42:39.922Z</time></trkpt><trkpt lat="9.9735152" lon="-84.1482006"><ele>995.3333333333333</ele><time>2026-04-02T21:42:40.923Z</time></trkpt><trkpt lat="9.9734344" lon="-84.1480051"><ele>997.0</ele><time>2026-04-02T21:42:41.922Z</time></trkpt><trkpt lat="9.9733578" lon="-84.147805"><ele>997.3333333333333</ele><time>2026-04-02T21:42:42.921Z</time></trkpt><trkpt lat="9.9732851" lon="-84.1476041"><ele>997.6666666666667</ele><time>2026-04-02T21:42:43.922Z</time></trkpt><trkpt lat="9.9732134" lon="-84.1474005"><ele>998.0</ele><time>2026-04-02T21:42:44.922Z</time></trkpt><trkpt lat="9.9731365" lon="-84.1471957"><ele>998.0</ele><time>2026-04-02T21:42:45.922Z</time></trkpt><trkpt lat="9.9730607" lon="-84.1469911"><ele>998.0</ele><time>2026-04-02T21:42:46.923Z</time></trkpt><trkpt lat="9.9729825" lon="-84.1467859"><ele>998.0</ele><time>2026-04-02T21:42:47.922Z</time></trkpt><trkpt lat="9.9729073" lon="-84.1465769"><ele>998.5</ele><time>2026-04-02T21:42:48.922Z</time></trkpt><trkpt lat="9.9728248" lon="-84.1463632"><ele>999.0</ele><time>2026-04-02T21:42:49.922Z</time></trkpt><trkpt lat="9.9727398" lon="-84.1461439"><ele>999.0</ele><time>2026-04-02T21:42:50.922Z</time></trkpt><trkpt lat="9.9726543" lon="-84.1459202"><ele>999.0</ele><time>2026-04-02T21:42:51.922Z</time></trkpt><trkpt lat="9.9725699" lon="-84.1456938"><ele>996.5</ele><time>2026-04-02T21:42:52.921Z</time></trkpt><trkpt lat="9.9724811" lon="-84.1454595"><ele>994.0</ele><time>2026-04-02T21:42:53.922Z</time></trkpt><trkpt lat="9.972395" lon="-84.1452217"><ele>994.0</ele><time>2026-04-02T21:42:54.922Z</time></trkpt><trkpt lat="9.9723027" lon="-84.1449784"><ele>994.0</ele><time>2026-04-02T21:42:55.922Z</time></trkpt><trkpt lat="9.9722104" lon="-84.1447317"><ele>994.0</ele><time>2026-04-02T21:42:56.922Z</time></trkpt><trkpt lat="9.972118" lon="-84.1444819"><ele>994.0</ele><time>2026-04-02T21:42:57.922Z</time></trkpt><trkpt lat="9.9720245" lon="-84.1442279"><ele>992.5</ele><time>2026-04-02T21:42:58.922Z</time></trkpt><trkpt lat="9.9719272" lon="-84.1439702"><ele>991.0</ele><time>2026-04-02T21:42:59.922Z</time></trkpt><trkpt lat="9.9718304" lon="-84.1437189"><ele>991.0</ele><time>2026-04-02T21:43:00.922Z</time></trkpt><trkpt lat="9.971741" lon="-84.1434687"><ele>991.0</ele><time>2026-04-02T21:43:01.921Z</time></trkpt><trkpt lat="9.9716485" lon="-84.1432203"><ele>991.0</ele><time>2026-04-02T21:43:02.922Z</time></trkpt><trkpt lat="9.9715591" lon="-84.142977"><ele>991.0</ele><time>2026-04-02T21:43:03.922Z</time></trkpt><trkpt lat="9.9714751" lon="-84.1427527"><ele>991.0</ele><time>2026-04-02T21:43:04.923Z</time></trkpt><trkpt lat="9.9713962" lon="-84.1425343"><ele>991.0</ele><time>2026-04-02T21:43:05.921Z</time></trkpt><trkpt lat="9.9713217" lon="-84.1423194"><ele>993.0</ele><time>2026-04-02T21:43:06.921Z</time></trkpt><trkpt lat="9.9712439" lon="-84.1420975"><ele>995.0</ele><time>2026-04-02T21:43:07.921Z</time></trkpt><trkpt lat="9.9711609" lon="-84.1418786"><ele>995.0</ele><time>2026-04-02T21:43:08.922Z</time></trkpt><trkpt lat="9.9710814" lon="-84.1416535"><ele>995.0</ele><time>2026-04-02T21:43:09.922Z</time></trkpt><trkpt lat="9.9710031" lon="-84.1414338"><ele>995.5</ele><time>2026-04-02T21:43:10.922Z</time></trkpt><trkpt lat="9.9709098" lon="-84.1412105"><ele>996.0</ele><time>2026-04-02T21:43:11.922Z</time></trkpt><trkpt lat="9.9708109" lon="-84.14098"><ele>1004.0</ele><time>2026-04-02T21:43:12.92Z</time></trkpt><trkpt lat="9.9706936" lon="-84.1407387"><ele>1012.0</ele><time>2026-04-02T21:43:13.922Z</time></trkpt><trkpt lat="9.9705752" lon="-84.1404943"><ele>1012.0</ele><time>2026-04-02T21:43:14.923Z</time></trkpt><trkpt lat="9.9704561" lon="-84.1402477"><ele>1012.0</ele><time>2026-04-02T21:43:15.922Z</time></trkpt><trkpt lat="9.9703375" lon="-84.1400135"><ele>1012.5</ele><time>2026-04-02T21:43:16.922Z</time></trkpt><trkpt lat="9.9702198" lon="-84.1397849"><ele>1013.0</ele><time>2026-04-02T21:43:17.922Z</time></trkpt><trkpt lat="9.9701051" lon="-84.1395645"><ele>1016.0</ele><time>2026-04-02T21:43:18.922Z</time></trkpt><trkpt lat="9.9699889" lon="-84.1393479"><ele>1019.0</ele><time>2026-04-02T21:43:19.922Z</time></trkpt><trkpt lat="9.9698724" lon="-84.1391335"><ele>1021.0</ele><time>2026-04-02T21:43:20.922Z</time></trkpt><trkpt lat="9.9697584" lon="-84.1389172"><ele>1023.0</ele><time>2026-04-02T21:43:21.922Z</time></trkpt><trkpt lat="9.969638" lon="-84.1387024"><ele>1023.0</ele><time>2026-04-02T21:43:22.921Z</time></trkpt><trkpt lat="9.9695188" lon="-84.1384894"><ele>1023.0</ele><time>2026-04-02T21:43:23.921Z</time></trkpt><trkpt lat="9.9694073" lon="-84.1382814"><ele>1024.0</ele><time>2026-04-02T21:43:24.922Z</time></trkpt><trkpt lat="9.9692899" lon="-84.1380771"><ele>1025.0</ele><time>2026-04-02T21:43:25.922Z</time></trkpt><trkpt lat="9.9691679" lon="-84.1378733"><ele>1023.0</ele><time>2026-04-02T21:43:26.922Z</time></trkpt><trkpt lat="9.9690411" lon="-84.1376528"><ele>1021.0</ele><time>2026-04-02T21:43:27.922Z</time></trkpt><trkpt lat="9.9689124" lon="-84.1374288"><ele>1022.0</ele><time>2026-04-02T21:43:28.923Z</time></trkpt><trkpt lat="9.968789" lon="-84.1371989"><ele>1023.0</ele><time>2026-04-02T21:43:29.922Z</time></trkpt><trkpt lat="9.9686553" lon="-84.1369645"><ele>1023.0</ele><time>2026-04-02T21:43:30.922Z</time></trkpt><trkpt lat="9.9685267" lon="-84.1367341"><ele>1023.0</ele><time>2026-04-02T21:43:31.922Z</time></trkpt><trkpt lat="9.9683995" lon="-84.1364987"><ele>1022.5</ele><time>2026-04-02T21:43:32.922Z</time></trkpt><trkpt lat="9.9682733" lon="-84.1362665"><ele>1022.0</ele><time>2026-04-02T21:43:33.92Z</time></trkpt><trkpt lat="9.9681441" lon="-84.1360223"><ele>1022.0</ele><time>2026-04-02T21:43:34.921Z</time></trkpt><trkpt lat="9.9680131" lon="-84.1357818"><ele>1022.0</ele><time>2026-04-02T21:43:35.922Z</time></trkpt><trkpt lat="9.9678806" lon="-84.1355466"><ele>1023.0</ele><time>2026-04-02T21:43:36.922Z</time></trkpt><trkpt lat="9.9677506" lon="-84.1353075"><ele>1024.0</ele><time>2026-04-02T21:43:37.921Z</time></trkpt><trkpt lat="9.9676279" lon="-84.1350774"><ele>1007.5</ele><time>2026-04-02T21:43:38.921Z</time></trkpt><trkpt lat="9.9674968" lon="-84.1348485"><ele>991.0</ele><time>2026-04-02T21:43:39.922Z</time></trkpt><trkpt lat="9.9673601" lon="-84.1346154"><ele>991.0</ele><time>2026-04-02T21:43:40.921Z</time></trkpt><trkpt lat="9.9672229" lon="-84.1343791"><ele>991.0</ele><time>2026-04-02T21:43:41.921Z</time></trkpt><trkpt lat="9.9670862" lon="-84.1341369"><ele>986.5</ele><time>2026-04-02T21:43:42.922Z</time></trkpt><trkpt lat="9.9669515" lon="-84.1338941"><ele>982.0</ele><time>2026-04-02T21:43:43.922Z</time></trkpt><trkpt lat="9.9668205" lon="-84.1336509"><ele>988.0</ele><time>2026-04-02T21:43:44.921Z</time></trkpt><trkpt lat="9.9666929" lon="-84.1334114"><ele>994.0</ele><time>2026-04-02T21:43:45.921Z</time></trkpt><trkpt lat="9.9665631" lon="-84.1331727"><ele>994.0</ele><time>2026-04-02T21:43:46.922Z</time></trkpt><trkpt lat="9.9664355" lon="-84.1329373"><ele>994.0</ele><time>2026-04-02T21:43:47.922Z</time></trkpt><trkpt lat="9.966309" lon="-84.1326998"><ele>994.0</ele><time>2026-04-02T21:43:48.921Z</time></trkpt><trkpt lat="9.9661811" lon="-84.1324562"><ele>994.0</ele><time>2026-04-02T21:43:49.922Z</time></trkpt><trkpt lat="9.9660534" lon="-84.1322166"><ele>989.0</ele><time>2026-04-02T21:43:50.922Z</time></trkpt><trkpt lat="9.9659292" lon="-84.1319762"><ele>984.0</ele><time>2026-04-02T21:43:51.922Z</time></trkpt><trkpt lat="9.9658009" lon="-84.1317369"><ele>989.5</ele><time>2026-04-02T21:43:52.921Z</time></trkpt><trkpt lat="9.9656717" lon="-84.1315015"><ele>995.0</ele><time>2026-04-02T21:43:53.922Z</time></trkpt><trkpt lat="9.965543" lon="-84.131267"><ele>995.0</ele><time>2026-04-02T21:43:54.922Z</time></trkpt><trkpt lat="9.9654073" lon="-84.1310215"><ele>995.0</ele><time>2026-04-02T21:43:55.922Z</time></trkpt><trkpt lat="9.9652691" lon="-84.1307699"><ele>993.5</ele><time>2026-04-02T21:43:56.922Z</time></trkpt><trkpt lat="9.9651267" lon="-84.1305088"><ele>992.0</ele><time>2026-04-02T21:43:57.921Z</time></trkpt><trkpt lat="9.9649777" lon="-84.1302377"><ele>1005.5</ele><time>2026-04-02T21:43:58.923Z</time></trkpt><trkpt lat="9.9648241" lon="-84.1299558"><ele>1019.0</ele><time>2026-04-02T21:43:59.922Z</time></trkpt><trkpt lat="9.9646647" lon="-84.1296653"><ele>1021.0</ele><time>2026-04-02T21:44:00.922Z</time></trkpt><trkpt lat="9.9645048" lon="-84.1293702"><ele>1023.0</ele><time>2026-04-02T21:44:01.921Z</time></trkpt><trkpt lat="9.9643369" lon="-84.1290663"><ele>1028.5</ele><time>2026-04-02T21:44:02.923Z</time></trkpt><trkpt lat="9.964166" lon="-84.1287537"><ele>1034.0</ele><time>2026-04-02T21:44:03.923Z</time></trkpt><trkpt lat="9.9639983" lon="-84.1284365"><ele>1033.0</ele><time>2026-04-02T21:44:04.922Z</time></trkpt><trkpt lat="9.9638301" lon="-84.1281304"><ele>1032.0</ele><time>2026-04-02T21:44:05.922Z</time></trkpt><trkpt lat="9.9636743" lon="-84.1278479"><ele>1032.0</ele><time>2026-04-02T21:44:06.922Z</time></trkpt><trkpt lat="9.9635312" lon="-84.1275887"><ele>1032.0</ele><time>2026-04-02T21:44:07.923Z</time></trkpt><trkpt lat="9.9633933" lon="-84.1273322"><ele>1035.5</ele><time>2026-04-02T21:44:08.923Z</time></trkpt><trkpt lat="9.9632554" lon="-84.1270772"><ele>1039.0</ele><time>2026-04-02T21:44:09.922Z</time></trkpt><trkpt lat="9.96312" lon="-84.1268246"><ele>1039.0</ele><time>2026-04-02T21:44:10.923Z</time></trkpt><trkpt lat="9.9629887" lon="-84.1265818"><ele>1039.0</ele><time>2026-04-02T21:44:11.921Z</time></trkpt><trkpt lat="9.9628552" lon="-84.1263386"><ele>1038.5</ele><time>2026-04-02T21:44:12.922Z</time></trkpt><trkpt lat="9.9627301" lon="-84.1261065"><ele>1038.0</ele><time>2026-04-02T21:44:13.922Z</time></trkpt><trkpt lat="9.9626133" lon="-84.1258828"><ele>1040.0</ele><time>2026-04-02T21:44:14.922Z</time></trkpt><trkpt lat="9.9624977" lon="-84.1256578"><ele>1042.0</ele><time>2026-04-02T21:44:15.922Z</time></trkpt><trkpt lat="9.9623787" lon="-84.1254337"><ele>1042.0</ele><time>2026-04-02T21:44:16.922Z</time></trkpt><trkpt lat="9.9622607" lon="-84.1252075"><ele>1042.0</ele><time>2026-04-02T21:44:17.922Z</time></trkpt><trkpt lat="9.9621445" lon="-84.1249896"><ele>1043.0</ele><time>2026-04-02T21:44:18.921Z</time></trkpt><trkpt lat="9.9620343" lon="-84.1247837"><ele>1044.0</ele><time>2026-04-02T21:44:19.921Z</time></trkpt><trkpt lat="9.9619203" lon="-84.1245839"><ele>1044.0</ele><time>2026-04-02T21:44:20.922Z</time></trkpt><trkpt lat="9.9618047" lon="-84.1243834"><ele>1044.0</ele><time>2026-04-02T21:44:21.922Z</time></trkpt><trkpt lat="9.961681" lon="-84.1241691"><ele>1044.5</ele><time>2026-04-02T21:44:22.922Z</time></trkpt><trkpt lat="9.9615567" lon="-84.1239503"><ele>1045.0</ele><time>2026-04-02T21:44:23.921Z</time></trkpt><trkpt lat="9.9614381" lon="-84.1237213"><ele>1045.0</ele><time>2026-04-02T21:44:24.921Z</time></trkpt><trkpt lat="9.9613171" lon="-84.1234787"><ele>1045.0</ele><time>2026-04-02T21:44:25.922Z</time></trkpt><trkpt lat="9.9611853" lon="-84.1232361"><ele>1044.5</ele><time>2026-04-02T21:44:26.921Z</time></trkpt><trkpt lat="9.9610509" lon="-84.1229832"><ele>1044.0</ele><time>2026-04-02T21:44:27.921Z</time></trkpt><trkpt lat="9.9609102" lon="-84.1227239"><ele>1044.5</ele><time>2026-04-02T21:44:28.921Z</time></trkpt><trkpt lat="9.9607666" lon="-84.1224672"><ele>1045.0</ele><time>2026-04-02T21:44:29.922Z</time></trkpt><trkpt lat="9.9606167" lon="-84.1221978"><ele>1044.0</ele><time>2026-04-02T21:44:30.921Z</time></trkpt><trkpt lat="9.96046" lon="-84.1219084"><ele>1043.0</ele><time>2026-04-02T21:44:31.922Z</time></trkpt><trkpt lat="9.9603026" lon="-84.1216135"><ele>1044.0</ele><time>2026-04-02T21:44:32.922Z</time></trkpt><trkpt lat="9.9601422" lon="-84.1213137"><ele>1045.0</ele><time>2026-04-02T21:44:33.921Z</time></trkpt><trkpt lat="9.959985" lon="-84.1210207"><ele>1048.0</ele><time>2026-04-02T21:44:34.92Z</time></trkpt><trkpt lat="9.9598349" lon="-84.1207577"><ele>1051.0</ele><time>2026-04-02T21:44:35.921Z</time></trkpt><trkpt lat="9.9596972" lon="-84.1205013"><ele>1052.0</ele><time>2026-04-02T21:44:36.922Z</time></trkpt><trkpt lat="9.959571" lon="-84.1202697"><ele>1053.0</ele><time>2026-04-02T21:44:37.921Z</time></trkpt><trkpt lat="9.9594525" lon="-84.120056"><ele>1053.6666666666667</ele><time>2026-04-02T21:44:38.921Z</time></trkpt><trkpt lat="9.9593482" lon="-84.1198605"><ele>1054.3333333333335</ele><time>2026-04-02T21:44:39.922Z</time></trkpt><trkpt lat="9.9592485" lon="-84.1196781"><ele>1055.0</ele><time>2026-04-02T21:44:40.922Z</time></trkpt><trkpt lat="9.9591539" lon="-84.1194969"><ele>1055.6666666666667</ele><time>2026-04-02T21:44:41.922Z</time></trkpt><trkpt lat="9.959062" lon="-84.1193231"><ele>1056.3333333333333</ele><time>2026-04-02T21:44:42.92Z</time></trkpt><trkpt lat="9.9589731" lon="-84.1191543"><ele>1057.0</ele><time>2026-04-02T21:44:43.922Z</time></trkpt><trkpt lat="9.958874" lon="-84.1189863"><ele>1057.3333333333333</ele><time>2026-04-02T21:44:44.921Z</time></trkpt><trkpt lat="9.9587705" lon="-84.1188106"><ele>1057.6666666666667</ele><time>2026-04-02T21:44:45.921Z</time></trkpt><trkpt lat="9.9586555" lon="-84.1186216"><ele>1058.0</ele><time>2026-04-02T21:44:46.921Z</time></trkpt><trkpt lat="9.9585333" lon="-84.1184296"><ele>1058.0</ele><time>2026-04-02T21:44:47.922Z</time></trkpt><trkpt lat="9.9584104" lon="-84.1182361"><ele>1058.0</ele><time>2026-04-02T21:44:48.921Z</time></trkpt><trkpt lat="9.9582864" lon="-84.1180416"><ele>1059.0</ele><time>2026-04-02T21:44:49.921Z</time></trkpt><trkpt lat="9.9581581" lon="-84.11785"><ele>1060.0</ele><time>2026-04-02T21:44:50.922Z</time></trkpt><trkpt lat="9.9580209" lon="-84.1176646"><ele>1060.0</ele><time>2026-04-02T21:44:51.922Z</time></trkpt><trkpt lat="9.957871" lon="-84.1174769"><ele>1060.0</ele><time>2026-04-02T21:44:52.922Z</time></trkpt><trkpt lat="9.9577169" lon="-84.1172912"><ele>1060.6666666666665</ele><time>2026-04-02T21:44:53.922Z</time></trkpt><trkpt lat="9.957564" lon="-84.11712"><ele>1061.3333333333333</ele><time>2026-04-02T21:44:54.922Z</time></trkpt><trkpt lat="9.9574107" lon="-84.1169582"><ele>1062.0</ele><time>2026-04-02T21:44:55.923Z</time></trkpt><trkpt lat="9.9572554" lon="-84.1168015"><ele>1062.3333333333333</ele><time>2026-04-02T21:44:56.921Z</time></trkpt><trkpt lat="9.9570923" lon="-84.1166452"><ele>1062.6666666666665</ele><time>2026-04-02T21:44:57.922Z</time></trkpt><trkpt lat="9.9569276" lon="-84.1164903"><ele>1063.0</ele><time>2026-04-02T21:44:58.922Z</time></trkpt><trkpt lat="9.9567603" lon="-84.1163434"><ele>1065.0</ele><time>2026-04-02T21:44:59.922Z</time></trkpt><trkpt lat="9.9565815" lon="-84.1161993"><ele>1067.0</ele><time>2026-04-02T21:45:00.922Z</time></trkpt><trkpt lat="9.9564076" lon="-84.1160593"><ele>1067.0</ele><time>2026-04-02T21:45:01.922Z</time></trkpt><trkpt lat="9.9562272" lon="-84.115926"><ele>1067.0</ele><time>2026-04-02T21:45:02.921Z</time></trkpt><trkpt lat="9.9560311" lon="-84.1157886"><ele>1068.5</ele><time>2026-04-02T21:45:03.921Z</time></trkpt><trkpt lat="9.9558329" lon="-84.1156508"><ele>1070.0</ele><time>2026-04-02T21:45:04.921Z</time></trkpt><trkpt lat="9.9556505" lon="-84.1155241"><ele>1070.0</ele><time>2026-04-02T21:45:05.922Z</time></trkpt><trkpt lat="9.9554822" lon="-84.1154089"><ele>1070.0</ele><time>2026-04-02T21:45:06.921Z</time></trkpt><trkpt lat="9.9553177" lon="-84.1152936"><ele>1070.0</ele><time>2026-04-02T21:45:07.922Z</time></trkpt><trkpt lat="9.9551482" lon="-84.1151819"><ele>1070.3333333333335</ele><time>2026-04-02T21:45:08.921Z</time></trkpt><trkpt lat="9.9549821" lon="-84.1150662"><ele>1070.6666666666667</ele><time>2026-04-02T21:45:09.922Z</time></trkpt><trkpt lat="9.9548116" lon="-84.1149481"><ele>1071.0</ele><time>2026-04-02T21:45:10.922Z</time></trkpt><trkpt lat="9.9546396" lon="-84.1148298"><ele>1071.0</ele><time>2026-04-02T21:45:11.921Z</time></trkpt><trkpt lat="9.9544639" lon="-84.1147085"><ele>1071.0</ele><time>2026-04-02T21:45:12.921Z</time></trkpt><trkpt lat="9.9542912" lon="-84.1145911"><ele>1071.0</ele><time>2026-04-02T21:45:13.921Z</time></trkpt><trkpt lat="9.9541167" lon="-84.1144689"><ele>1071.3333333333333</ele><time>2026-04-02T21:45:14.922Z</time></trkpt><trkpt lat="9.9539443" lon="-84.1143491"><ele>1071.6666666666665</ele><time>2026-04-02T21:45:15.922Z</time></trkpt><trkpt lat="9.9537724" lon="-84.1142279"><ele>1072.0</ele><time>2026-04-02T21:45:16.922Z</time></trkpt><trkpt lat="9.9535987" lon="-84.11411"><ele>1073.0</ele><time>2026-04-02T21:45:17.921Z</time></trkpt><trkpt lat="9.9534387" lon="-84.1139991"><ele>1074.0</ele><time>2026-04-02T21:45:18.922Z</time></trkpt><trkpt lat="9.9532896" lon="-84.1138947"><ele>1075.0</ele><time>2026-04-02T21:45:19.921Z</time></trkpt><trkpt lat="9.9531586" lon="-84.1138021"><ele>1075.0</ele><time>2026-04-02T21:45:20.922Z</time></trkpt><trkpt lat="9.9530241" lon="-84.1137146"><ele>1075.0</ele><time>2026-04-02T21:45:21.922Z</time></trkpt><trkpt lat="9.9528898" lon="-84.1136221"><ele>1075.0</ele><time>2026-04-02T21:45:22.921Z</time></trkpt><trkpt lat="9.9527529" lon="-84.1135291"><ele>1075.0</ele><time>2026-04-02T21:45:23.922Z</time></trkpt><trkpt lat="9.952617" lon="-84.1134354"><ele>1075.0</ele><time>2026-04-02T21:45:24.921Z</time></trkpt><trkpt lat="9.9524812" lon="-84.1133381"><ele>1075.0</ele><time>2026-04-02T21:45:25.922Z</time></trkpt><trkpt lat="9.9523437" lon="-84.1132414"><ele>1075.0</ele><time>2026-04-02T21:45:26.922Z</time></trkpt><trkpt lat="9.9522059" lon="-84.1131451"><ele>1075.0</ele><time>2026-04-02T21:45:27.921Z</time></trkpt><trkpt lat="9.9520701" lon="-84.1130498"><ele>1075.0</ele><time>2026-04-02T21:45:28.922Z</time></trkpt><trkpt lat="9.9519311" lon="-84.1129552"><ele>1075.0</ele><time>2026-04-02T21:45:29.922Z</time></trkpt><trkpt lat="9.9518" lon="-84.1128639"><ele>1075.0</ele><time>2026-04-02T21:45:30.921Z</time></trkpt><trkpt lat="9.9516796" lon="-84.1127824"><ele>1075.0</ele><time>2026-04-02T21:45:31.921Z</time></trkpt><trkpt lat="9.9515607" lon="-84.112696"><ele>1075.75</ele><time>2026-04-02T21:45:32.92Z</time></trkpt><trkpt lat="9.9514444" lon="-84.1126126"><ele>1076.5</ele><time>2026-04-02T21:45:33.921Z</time></trkpt><trkpt lat="9.9513283" lon="-84.1125334"><ele>1077.25</ele><time>2026-04-02T21:45:34.921Z</time></trkpt><trkpt lat="9.951213" lon="-84.1124559"><ele>1078.0</ele><time>2026-04-02T21:45:35.922Z</time></trkpt><trkpt lat="9.9510933" lon="-84.1123768"><ele>1078.5</ele><time>2026-04-02T21:45:36.922Z</time></trkpt><trkpt lat="9.9509761" lon="-84.1122951"><ele>1079.0</ele><time>2026-04-02T21:45:37.922Z</time></trkpt><trkpt lat="9.9508523" lon="-84.112207"><ele>1079.5</ele><time>2026-04-02T21:45:38.921Z</time></trkpt><trkpt lat="9.9507331" lon="-84.1121218"><ele>1080.0</ele><time>2026-04-02T21:45:39.921Z</time></trkpt><trkpt lat="9.9506036" lon="-84.1120399"><ele>1081.0</ele><time>2026-04-02T21:45:40.922Z</time></trkpt><trkpt lat="9.9504749" lon="-84.1119558"><ele>1082.0</ele><time>2026-04-02T21:45:41.921Z</time></trkpt><trkpt lat="9.9503433" lon="-84.1118683"><ele>1083.0</ele><time>2026-04-02T21:45:42.921Z</time></trkpt><trkpt lat="9.9502126" lon="-84.1117829"><ele>1083.0</ele><time>2026-04-02T21:45:43.922Z</time></trkpt><trkpt lat="9.9500842" lon="-84.1116956"><ele>1083.0</ele><time>2026-04-02T21:45:44.922Z</time></trkpt><trkpt lat="9.9499548" lon="-84.1116176"><ele>1083.0</ele><time>2026-04-02T21:45:45.922Z</time></trkpt><trkpt lat="9.949836" lon="-84.1115368"><ele>1083.0</ele><time>2026-04-02T21:45:46.923Z</time></trkpt><trkpt lat="9.9497126" lon="-84.1114535"><ele>1084.3333333333333</ele><time>2026-04-02T21:45:47.923Z</time></trkpt><trkpt lat="9.9495825" lon="-84.1113646"><ele>1085.6666666666665</ele><time>2026-04-02T21:45:48.921Z</time></trkpt><trkpt lat="9.9494459" lon="-84.1112736"><ele>1087.0</ele><time>2026-04-02T21:45:49.921Z</time></trkpt><trkpt lat="9.9493061" lon="-84.1111755"><ele>1088.3333333333333</ele><time>2026-04-02T21:45:50.922Z</time></trkpt><trkpt lat="9.9491646" lon="-84.1110755"><ele>1089.6666666666667</ele><time>2026-04-02T21:45:51.922Z</time></trkpt><trkpt lat="9.9490287" lon="-84.1109801"><ele>1091.0</ele><time>2026-04-02T21:45:52.922Z</time></trkpt><trkpt lat="9.9488916" lon="-84.1108833"><ele>1091.0</ele><time>2026-04-02T21:45:53.921Z</time></trkpt><trkpt lat="9.9487425" lon="-84.1107868"><ele>1091.0</ele><time>2026-04-02T21:45:54.921Z</time></trkpt><trkpt lat="9.948585" lon="-84.1106887"><ele>1091.0</ele><time>2026-04-02T21:45:55.922Z</time></trkpt><trkpt lat="9.9484244" lon="-84.1105879"><ele>1092.6666666666667</ele><time>2026-04-02T21:45:56.922Z</time></trkpt><trkpt lat="9.9482778" lon="-84.1104946"><ele>1094.3333333333333</ele><time>2026-04-02T21:45:57.923Z</time></trkpt><trkpt lat="9.9481421" lon="-84.1104041"><ele>1096.0</ele><time>2026-04-02T21:45:58.923Z</time></trkpt><trkpt lat="9.9480052" lon="-84.1103128"><ele>1096.0</ele><time>2026-04-02T21:45:59.922Z</time></trkpt><trkpt lat="9.9478765" lon="-84.1102253"><ele>1096.0</ele><time>2026-04-02T21:46:00.921Z</time></trkpt><trkpt lat="9.947759" lon="-84.1101451"><ele>1096.0</ele><time>2026-04-02T21:46:01.921Z</time></trkpt><trkpt lat="9.9476508" lon="-84.1100707"><ele>1096.0</ele><time>2026-04-02T21:46:02.922Z</time></trkpt><trkpt lat="9.9475295" lon="-84.1100084"><ele>1096.5</ele><time>2026-04-02T21:46:03.922Z</time></trkpt><trkpt lat="9.9474092" lon="-84.1099739"><ele>1097.0</ele><time>2026-04-02T21:46:04.922Z</time></trkpt><trkpt lat="9.9472914" lon="-84.1099612"><ele>1097.5</ele><time>2026-04-02T21:46:05.922Z</time></trkpt><trkpt lat="9.9471762" lon="-84.1099929"><ele>1098.0</ele><time>2026-04-02T21:46:06.922Z</time></trkpt><trkpt lat="9.9470535" lon="-84.1100394"><ele>1098.0</ele><time>2026-04-02T21:46:07.922Z</time></trkpt><trkpt lat="9.9469168" lon="-84.1101084"><ele>1098.0</ele><time>2026-04-02T21:46:08.922Z</time></trkpt><trkpt lat="9.9467669" lon="-84.1101916"><ele>1098.0</ele><time>2026-04-02T21:46:09.92Z</time></trkpt><trkpt lat="9.9466135" lon="-84.1102781"><ele>1099.3333333333333</ele><time>2026-04-02T21:46:10.921Z</time></trkpt><trkpt lat="9.9464594" lon="-84.1103554"><ele>1100.6666666666665</ele><time>2026-04-02T21:46:11.922Z</time></trkpt><trkpt lat="9.9463234" lon="-84.110434"><ele>1102.0</ele><time>2026-04-02T21:46:12.922Z</time></trkpt><trkpt lat="9.946206" lon="-84.1105263"><ele>1102.0</ele><time>2026-04-02T21:46:13.922Z</time></trkpt><trkpt lat="9.9461087" lon="-84.1106228"><ele>1102.0</ele><time>2026-04-02T21:46:14.921Z</time></trkpt><trkpt lat="9.9460585" lon="-84.1107445"><ele>1102.0</ele><time>2026-04-02T21:46:15.921Z</time></trkpt><trkpt lat="9.9460326" lon="-84.1109004"><ele>1102.0</ele><time>2026-04-02T21:46:16.921Z</time></trkpt><trkpt lat="9.9460251" lon="-84.111082"><ele>1101.6666666666665</ele><time>2026-04-02T21:46:17.922Z</time></trkpt><trkpt lat="9.9460038" lon="-84.111269"><ele>1101.3333333333333</ele><time>2026-04-02T21:46:18.922Z</time></trkpt><trkpt lat="9.9459765" lon="-84.1114584"><ele>1101.0</ele><time>2026-04-02T21:46:19.922Z</time></trkpt><trkpt lat="9.9459483" lon="-84.1116412"><ele>1101.0</ele><time>2026-04-02T21:46:20.921Z</time></trkpt><trkpt lat="9.9459211" lon="-84.1118122"><ele>1101.0</ele><time>2026-04-02T21:46:21.921Z</time></trkpt><trkpt lat="9.9459011" lon="-84.1119889"><ele>1101.0</ele><time>2026-04-02T21:46:22.921Z</time></trkpt><trkpt lat="9.9458744" lon="-84.112182"><ele>1097.3333333333333</ele><time>2026-04-02T21:46:23.922Z</time></trkpt><trkpt lat="9.9458459" lon="-84.1123897"><ele>1093.6666666666665</ele><time>2026-04-02T21:46:24.922Z</time></trkpt><trkpt lat="9.9458264" lon="-84.1125986"><ele>1090.0</ele><time>2026-04-02T21:46:25.921Z</time></trkpt><trkpt lat="9.9458025" lon="-84.1127955"><ele>1089.3333333333333</ele><time>2026-04-02T21:46:26.922Z</time></trkpt><trkpt lat="9.9457796" lon="-84.1129999"><ele>1088.6666666666667</ele><time>2026-04-02T21:46:27.922Z</time></trkpt><trkpt lat="9.9457444" lon="-84.1132048"><ele>1088.0</ele><time>2026-04-02T21:46:28.922Z</time></trkpt><trkpt lat="9.9457" lon="-84.1134077"><ele>1087.3333333333335</ele><time>2026-04-02T21:46:29.921Z</time></trkpt><trkpt lat="9.9456435" lon="-84.1136136"><ele>1086.6666666666667</ele><time>2026-04-02T21:46:30.921Z</time></trkpt><trkpt lat="9.9455768" lon="-84.1138141"><ele>1086.0</ele><time>2026-04-02T21:46:31.921Z</time></trkpt><trkpt lat="9.9454958" lon="-84.114011"><ele>1081.0</ele><time>2026-04-02T21:46:32.922Z</time></trkpt><trkpt lat="9.9453998" lon="-84.1142035"><ele>1076.0</ele><time>2026-04-02T21:46:33.922Z</time></trkpt><trkpt lat="9.9452932" lon="-84.1143927"><ele>1071.0</ele><time>2026-04-02T21:46:34.921Z</time></trkpt><trkpt lat="9.9451797" lon="-84.1145807"><ele>1071.0</ele><time>2026-04-02T21:46:35.921Z</time></trkpt><trkpt lat="9.9450547" lon="-84.114759"><ele>1071.0</ele><time>2026-04-02T21:46:36.92Z</time></trkpt><trkpt lat="9.9449341" lon="-84.1149265"><ele>1071.0</ele><time>2026-04-02T21:46:37.922Z</time></trkpt><trkpt lat="9.9448109" lon="-84.1150959"><ele>1074.3333333333333</ele><time>2026-04-02T21:46:38.92Z</time></trkpt><trkpt lat="9.9446763" lon="-84.1152658"><ele>1077.6666666666665</ele><time>2026-04-02T21:46:39.922Z</time></trkpt><trkpt lat="9.9445335" lon="-84.1154313"><ele>1081.0</ele><time>2026-04-02T21:46:40.921Z</time></trkpt><trkpt lat="9.9443886" lon="-84.1155952"><ele>1084.0</ele><time>2026-04-02T21:46:41.922Z</time></trkpt><trkpt lat="9.9442423" lon="-84.1157499"><ele>1087.0</ele><time>2026-04-02T21:46:42.923Z</time></trkpt><trkpt lat="9.9440944" lon="-84.115897"><ele>1090.0</ele><time>2026-04-02T21:46:43.922Z</time></trkpt><trkpt lat="9.9439478" lon="-84.1160447"><ele>1090.0</ele><time>2026-04-02T21:46:44.921Z</time></trkpt><trkpt lat="9.9437915" lon="-84.1161841"><ele>1090.0</ele><time>2026-04-02T21:46:45.922Z</time></trkpt><trkpt lat="9.943645" lon="-84.1163321"><ele>1090.0</ele><time>2026-04-02T21:46:46.922Z</time></trkpt><trkpt lat="9.9434967" lon="-84.1164748"><ele>1091.0</ele><time>2026-04-02T21:46:47.921Z</time></trkpt><trkpt lat="9.9433383" lon="-84.1166067"><ele>1092.0</ele><time>2026-04-02T21:46:48.92Z</time></trkpt><trkpt lat="9.9431778" lon="-84.1167175"><ele>1093.0</ele><time>2026-04-02T21:46:49.922Z</time></trkpt><trkpt lat="9.9430058" lon="-84.1168124"><ele>1093.0</ele><time>2026-04-02T21:46:50.923Z</time></trkpt><trkpt lat="9.9428274" lon="-84.1168924"><ele>1093.0</ele><time>2026-04-02T21:46:51.922Z</time></trkpt><trkpt lat="9.9426408" lon="-84.1169593"><ele>1093.0</ele><time>2026-04-02T21:46:52.923Z</time></trkpt><trkpt lat="9.9424401" lon="-84.1170164"><ele>1094.6666666666665</ele><time>2026-04-02T21:46:53.922Z</time></trkpt><trkpt lat="9.9422304" lon="-84.1170651"><ele>1096.3333333333333</ele><time>2026-04-02T21:46:54.921Z</time></trkpt><trkpt lat="9.9420184" lon="-84.1171052"><ele>1098.0</ele><time>2026-04-02T21:46:55.921Z</time></trkpt><trkpt lat="9.9418024" lon="-84.1171386"><ele>1098.0</ele><time>2026-04-02T21:46:56.921Z</time></trkpt><trkpt lat="9.9415797" lon="-84.1171624"><ele>1098.0</ele><time>2026-04-02T21:46:57.923Z</time></trkpt><trkpt lat="9.941357" lon="-84.1171738"><ele>1098.0</ele><time>2026-04-02T21:46:58.921Z</time></trkpt><trkpt lat="9.941122" lon="-84.1171727"><ele>1098.0</ele><time>2026-04-02T21:46:59.922Z</time></trkpt><trkpt lat="9.9408883" lon="-84.1171619"><ele>1098.0</ele><time>2026-04-02T21:47:00.921Z</time></trkpt><trkpt lat="9.9406478" lon="-84.1171472"><ele>1099.0</ele><time>2026-04-02T21:47:01.92Z</time></trkpt><trkpt lat="9.9404068" lon="-84.117127"><ele>1100.0</ele><time>2026-04-02T21:47:02.921Z</time></trkpt><trkpt lat="9.9401795" lon="-84.1171109"><ele>1098.5</ele><time>2026-04-02T21:47:03.92Z</time></trkpt><trkpt lat="9.9399552" lon="-84.1170891"><ele>1097.0</ele><time>2026-04-02T21:47:04.921Z</time></trkpt><trkpt lat="9.9397274" lon="-84.117067"><ele>1097.0</ele><time>2026-04-02T21:47:05.921Z</time></trkpt><trkpt lat="9.9395013" lon="-84.1170413"><ele>1097.0</ele><time>2026-04-02T21:47:06.922Z</time></trkpt><trkpt lat="9.9392868" lon="-84.1170074"><ele>1097.0</ele><time>2026-04-02T21:47:07.921Z</time></trkpt><trkpt lat="9.9390891" lon="-84.1169668"><ele>1097.6666666666667</ele><time>2026-04-02T21:47:08.921Z</time></trkpt><trkpt lat="9.9389055" lon="-84.1169223"><ele>1098.3333333333333</ele><time>2026-04-02T21:47:09.92Z</time></trkpt><trkpt lat="9.9387255" lon="-84.1168737"><ele>1099.0</ele><time>2026-04-02T21:47:10.921Z</time></trkpt><trkpt lat="9.9385135" lon="-84.1168171"><ele>1099.3333333333333</ele><time>2026-04-02T21:47:11.922Z</time></trkpt><trkpt lat="9.9383111" lon="-84.1167642"><ele>1099.6666666666667</ele><time>2026-04-02T21:47:12.922Z</time></trkpt><trkpt lat="9.9380908" lon="-84.1167281"><ele>1100.0</ele><time>2026-04-02T21:47:13.921Z</time></trkpt><trkpt lat="9.9378603" lon="-84.1166992"><ele>1100.0</ele><time>2026-04-02T21:47:14.921Z</time></trkpt><trkpt lat="9.9376078" lon="-84.1166824"><ele>1100.0</ele><time>2026-04-02T21:47:15.921Z</time></trkpt><trkpt lat="9.937349" lon="-84.1166651"><ele>1099.0</ele><time>2026-04-02T21:47:16.921Z</time></trkpt><trkpt lat="9.937071" lon="-84.1166357"><ele>1098.0</ele><time>2026-04-02T21:47:17.922Z</time></trkpt><trkpt lat="9.9367982" lon="-84.1166204"><ele>1093.5</ele><time>2026-04-02T21:47:18.921Z</time></trkpt><trkpt lat="9.9365004" lon="-84.116597"><ele>1089.0</ele><time>2026-04-02T21:47:19.921Z</time></trkpt><trkpt lat="9.9362007" lon="-84.1165742"><ele>1093.0</ele><time>2026-04-02T21:47:20.921Z</time></trkpt><trkpt lat="9.935912" lon="-84.1165439"><ele>1097.0</ele><time>2026-04-02T21:47:21.922Z</time></trkpt><trkpt lat="9.9356394" lon="-84.1165164"><ele>1097.0</ele><time>2026-04-02T21:47:22.922Z</time></trkpt><trkpt lat="9.9353819" lon="-84.1164865"><ele>1097.0</ele><time>2026-04-02T21:47:23.923Z</time></trkpt><trkpt lat="9.9351376" lon="-84.1164534"><ele>1098.0</ele><time>2026-04-02T21:47:24.921Z</time></trkpt><trkpt lat="9.9348943" lon="-84.1164244"><ele>1099.0</ele><time>2026-04-02T21:47:25.922Z</time></trkpt><trkpt lat="9.9346484" lon="-84.1163977"><ele>1099.0</ele><time>2026-04-02T21:47:26.922Z</time></trkpt><trkpt lat="9.9343979" lon="-84.1163785"><ele>1099.0</ele><time>2026-04-02T21:47:27.922Z</time></trkpt><trkpt lat="9.9341474" lon="-84.1163634"><ele>1097.5</ele><time>2026-04-02T21:47:28.921Z</time></trkpt><trkpt lat="9.9338888" lon="-84.116351"><ele>1096.0</ele><time>2026-04-02T21:47:29.921Z</time></trkpt><trkpt lat="9.9336416" lon="-84.1163478"><ele>1096.0</ele><time>2026-04-02T21:47:30.921Z</time></trkpt><trkpt lat="9.9334096" lon="-84.1163421"><ele>1096.0</ele><time>2026-04-02T21:47:31.921Z</time></trkpt><trkpt lat="9.9331748" lon="-84.1163434"><ele>1095.5</ele><time>2026-04-02T21:47:32.921Z</time></trkpt><trkpt lat="9.9329329" lon="-84.1163428"><ele>1095.0</ele><time>2026-04-02T21:47:33.923Z</time></trkpt><trkpt lat="9.9326856" lon="-84.1163433"><ele>1090.0</ele><time>2026-04-02T21:47:34.921Z</time></trkpt><trkpt lat="9.9324345" lon="-84.1163451"><ele>1085.0</ele><time>2026-04-02T21:47:35.921Z</time></trkpt><trkpt lat="9.9321886" lon="-84.1163466"><ele>1085.0</ele><time>2026-04-02T21:47:36.923Z</time></trkpt><trkpt lat="9.9319492" lon="-84.1163503"><ele>1085.0</ele><time>2026-04-02T21:47:37.922Z</time></trkpt><trkpt lat="9.9317103" lon="-84.1163594"><ele>1078.0</ele><time>2026-04-02T21:47:38.92Z</time></trkpt><trkpt lat="9.9314697" lon="-84.1163642"><ele>1071.0</ele><time>2026-04-02T21:47:39.921Z</time></trkpt><trkpt lat="9.9312185" lon="-84.1163717"><ele>1071.0</ele><time>2026-04-02T21:47:40.921Z</time></trkpt><trkpt lat="9.9309727" lon="-84.1163773"><ele>1071.0</ele><time>2026-04-02T21:47:41.921Z</time></trkpt><trkpt lat="9.93074" lon="-84.1163854"><ele>1067.0</ele><time>2026-04-02T21:47:42.922Z</time></trkpt><trkpt lat="9.9305089" lon="-84.1164026"><ele>1063.0</ele><time>2026-04-02T21:47:43.922Z</time></trkpt><trkpt lat="9.9302825" lon="-84.1164076"><ele>1067.5</ele><time>2026-04-02T21:47:44.921Z</time></trkpt><trkpt lat="9.930058" lon="-84.1164081"><ele>1072.0</ele><time>2026-04-02T21:47:45.921Z</time></trkpt><trkpt lat="9.9298309" lon="-84.11641"><ele>1072.0</ele><time>2026-04-02T21:47:46.922Z</time></trkpt><trkpt lat="9.9296026" lon="-84.1164026"><ele>1072.0</ele><time>2026-04-02T21:47:47.922Z</time></trkpt><trkpt lat="9.9293773" lon="-84.1163948"><ele>1076.0</ele><time>2026-04-02T21:47:48.921Z</time></trkpt><trkpt lat="9.9291553" lon="-84.1163628"><ele>1080.0</ele><time>2026-04-02T21:47:49.922Z</time></trkpt><trkpt lat="9.9289507" lon="-84.1163173"><ele>1084.0</ele><time>2026-04-02T21:47:50.923Z</time></trkpt><trkpt lat="9.9287424" lon="-84.1162471"><ele>1084.0</ele><time>2026-04-02T21:47:51.922Z</time></trkpt><trkpt lat="9.9285401" lon="-84.116158"><ele>1084.0</ele><time>2026-04-02T21:47:52.92Z</time></trkpt><trkpt lat="9.928341" lon="-84.1160512"><ele>1084.0</ele><time>2026-04-02T21:47:53.923Z</time></trkpt><trkpt lat="9.9281539" lon="-84.1159324"><ele>1083.6666666666665</ele><time>2026-04-02T21:47:54.921Z</time></trkpt><trkpt lat="9.9279876" lon="-84.1158065"><ele>1083.3333333333333</ele><time>2026-04-02T21:47:55.921Z</time></trkpt><trkpt lat="9.9278312" lon="-84.1156802"><ele>1083.0</ele><time>2026-04-02T21:47:56.922Z</time></trkpt><trkpt lat="9.927689" lon="-84.1155445"><ele>1086.3333333333333</ele><time>2026-04-02T21:47:57.921Z</time></trkpt><trkpt lat="9.927576" lon="-84.1154068"><ele>1089.6666666666665</ele><time>2026-04-02T21:47:58.921Z</time></trkpt><trkpt lat="9.9274682" lon="-84.1152686"><ele>1093.0</ele><time>2026-04-02T21:47:59.922Z</time></trkpt><trkpt lat="9.9273769" lon="-84.1151319"><ele>1093.0</ele><time>2026-04-02T21:48:00.921Z</time></trkpt><trkpt lat="9.9272834" lon="-84.1149932"><ele>1093.0</ele><time>2026-04-02T21:48:01.92Z</time></trkpt><trkpt lat="9.9271931" lon="-84.1148464"><ele>1093.0</ele><time>2026-04-02T21:48:02.921Z</time></trkpt><trkpt lat="9.9271033" lon="-84.1146995"><ele>1096.0</ele><time>2026-04-02T21:48:03.921Z</time></trkpt><trkpt lat="9.9270146" lon="-84.1145497"><ele>1099.0</ele><time>2026-04-02T21:48:04.921Z</time></trkpt><trkpt lat="9.9269261" lon="-84.1143911"><ele>1102.0</ele><time>2026-04-02T21:48:05.922Z</time></trkpt><trkpt lat="9.9268361" lon="-84.1142294"><ele>1103.0</ele><time>2026-04-02T21:48:06.921Z</time></trkpt><trkpt lat="9.9267381" lon="-84.1140523"><ele>1104.0</ele><time>2026-04-02T21:48:07.921Z</time></trkpt><trkpt lat="9.9266356" lon="-84.1138724"><ele>1105.0</ele><time>2026-04-02T21:48:08.922Z</time></trkpt><trkpt lat="9.9265327" lon="-84.1136866"><ele>1105.3333333333333</ele><time>2026-04-02T21:48:09.921Z</time></trkpt><trkpt lat="9.9264235" lon="-84.1134967"><ele>1105.6666666666667</ele><time>2026-04-02T21:48:10.922Z</time></trkpt><trkpt lat="9.926315" lon="-84.113297"><ele>1106.0</ele><time>2026-04-02T21:48:11.921Z</time></trkpt><trkpt lat="9.9262064" lon="-84.1130999"><ele>1107.5</ele><time>2026-04-02T21:48:12.921Z</time></trkpt><trkpt lat="9.9260937" lon="-84.1128969"><ele>1109.0</ele><time>2026-04-02T21:48:13.921Z</time></trkpt><trkpt lat="9.9259799" lon="-84.1126905"><ele>1109.0</ele><time>2026-04-02T21:48:14.921Z</time></trkpt><trkpt lat="9.9258646" lon="-84.1124834"><ele>1109.0</ele><time>2026-04-02T21:48:15.921Z</time></trkpt><trkpt lat="9.925742" lon="-84.1122745"><ele>1110.5</ele><time>2026-04-02T21:48:16.921Z</time></trkpt><trkpt lat="9.9256199" lon="-84.1120556"><ele>1112.0</ele><time>2026-04-02T21:48:17.921Z</time></trkpt><trkpt lat="9.925492" lon="-84.1118283"><ele>1112.0</ele><time>2026-04-02T21:48:18.92Z</time></trkpt><trkpt lat="9.9253625" lon="-84.1115953"><ele>1112.0</ele><time>2026-04-02T21:48:19.921Z</time></trkpt><trkpt lat="9.9252286" lon="-84.1113596"><ele>1114.5</ele><time>2026-04-02T21:48:20.922Z</time></trkpt><trkpt lat="9.9250938" lon="-84.1111196"><ele>1117.0</ele><time>2026-04-02T21:48:21.921Z</time></trkpt><trkpt lat="9.9249537" lon="-84.1108717"><ele>1118.5</ele><time>2026-04-02T21:48:22.922Z</time></trkpt><trkpt lat="9.9248171" lon="-84.1106244"><ele>1120.0</ele><time>2026-04-02T21:48:23.922Z</time></trkpt><trkpt lat="9.9246895" lon="-84.1103899"><ele>1120.0</ele><time>2026-04-02T21:48:24.922Z</time></trkpt><trkpt lat="9.9245656" lon="-84.1101526"><ele>1120.0</ele><time>2026-04-02T21:48:25.922Z</time></trkpt><trkpt lat="9.9244453" lon="-84.1099128"><ele>1120.0</ele><time>2026-04-02T21:48:26.922Z</time></trkpt><trkpt lat="9.924318" lon="-84.1096689"><ele>1120.0</ele><time>2026-04-02T21:48:27.921Z</time></trkpt><trkpt lat="9.9241848" lon="-84.109429"><ele>1120.0</ele><time>2026-04-02T21:48:28.921Z</time></trkpt><trkpt lat="9.9240485" lon="-84.1091906"><ele>1120.0</ele><time>2026-04-02T21:48:29.923Z</time></trkpt><trkpt lat="9.9239119" lon="-84.1089454"><ele>1121.5</ele><time>2026-04-02T21:48:30.922Z</time></trkpt><trkpt lat="9.9237695" lon="-84.10871"><ele>1123.0</ele><time>2026-04-02T21:48:31.922Z</time></trkpt><trkpt lat="9.9236217" lon="-84.10849"><ele>1123.0</ele><time>2026-04-02T21:48:32.921Z</time></trkpt><trkpt lat="9.923464" lon="-84.1082848"><ele>1123.0</ele><time>2026-04-02T21:48:33.921Z</time></trkpt><trkpt lat="9.923295" lon="-84.1080915"><ele>1123.0</ele><time>2026-04-02T21:48:34.921Z</time></trkpt><trkpt lat="9.9231077" lon="-84.1079202"><ele>1123.0</ele><time>2026-04-02T21:48:35.92Z</time></trkpt><trkpt lat="9.9229114" lon="-84.1077627"><ele>1123.0</ele><time>2026-04-02T21:48:36.921Z</time></trkpt><trkpt lat="9.922712" lon="-84.1076274"><ele>1123.0</ele><time>2026-04-02T21:48:37.92Z</time></trkpt><trkpt lat="9.9225084" lon="-84.1075097"><ele>1124.0</ele><time>2026-04-02T21:48:38.921Z</time></trkpt><trkpt lat="9.922296" lon="-84.1073974"><ele>1125.0</ele><time>2026-04-02T21:48:39.923Z</time></trkpt><trkpt lat="9.9220629" lon="-84.1073062"><ele>1125.0</ele><time>2026-04-02T21:48:40.921Z</time></trkpt><trkpt lat="9.921823" lon="-84.1072219"><ele>1125.0</ele><time>2026-04-02T21:48:41.921Z</time></trkpt><trkpt lat="9.9215733" lon="-84.1071588"><ele>1122.0</ele><time>2026-04-02T21:48:42.921Z</time></trkpt><trkpt lat="9.9213134" lon="-84.1071019"><ele>1119.0</ele><time>2026-04-02T21:48:43.921Z</time></trkpt><trkpt lat="9.9210477" lon="-84.1070522"><ele>1115.5</ele><time>2026-04-02T21:48:44.921Z</time></trkpt><trkpt lat="9.9207751" lon="-84.1069981"><ele>1112.0</ele><time>2026-04-02T21:48:45.921Z</time></trkpt><trkpt lat="9.9204927" lon="-84.1069423"><ele>1112.0</ele><time>2026-04-02T21:48:46.922Z</time></trkpt><trkpt lat="9.9202162" lon="-84.1068898"><ele>1112.0</ele><time>2026-04-02T21:48:47.921Z</time></trkpt><trkpt lat="9.9199559" lon="-84.1068403"><ele>1111.5</ele><time>2026-04-02T21:48:48.923Z</time></trkpt><trkpt lat="9.9197093" lon="-84.1067922"><ele>1111.0</ele><time>2026-04-02T21:48:49.921Z</time></trkpt><trkpt lat="9.9194757" lon="-84.1067497"><ele>1111.0</ele><time>2026-04-02T21:48:50.921Z</time></trkpt><trkpt lat="9.9192462" lon="-84.1067062"><ele>1111.0</ele><time>2026-04-02T21:48:51.921Z</time></trkpt><trkpt lat="9.9190149" lon="-84.1066637"><ele>1111.0</ele><time>2026-04-02T21:48:52.922Z</time></trkpt><trkpt lat="9.918774" lon="-84.106619"><ele>1111.0</ele><time>2026-04-02T21:48:53.921Z</time></trkpt><trkpt lat="9.918528" lon="-84.1065751"><ele>1109.5</ele><time>2026-04-02T21:48:54.921Z</time></trkpt><trkpt lat="9.9182796" lon="-84.1065284"><ele>1108.0</ele><time>2026-04-02T21:48:55.921Z</time></trkpt><trkpt lat="9.9180236" lon="-84.1064806"><ele>1108.0</ele><time>2026-04-02T21:48:56.921Z</time></trkpt><trkpt lat="9.917761" lon="-84.106433"><ele>1108.0</ele><time>2026-04-02T21:48:57.921Z</time></trkpt><trkpt lat="9.9175044" lon="-84.1063853"><ele>1108.5</ele><time>2026-04-02T21:48:58.922Z</time></trkpt><trkpt lat="9.9172596" lon="-84.10634"><ele>1109.0</ele><time>2026-04-02T21:48:59.921Z</time></trkpt><trkpt lat="9.9170231" lon="-84.1062981"><ele>1109.0</ele><time>2026-04-02T21:49:00.922Z</time></trkpt><trkpt lat="9.9167988" lon="-84.1062528"><ele>1109.0</ele><time>2026-04-02T21:49:01.921Z</time></trkpt><trkpt lat="9.9165786" lon="-84.106211"><ele>1109.6666666666667</ele><time>2026-04-02T21:49:02.921Z</time></trkpt><trkpt lat="9.9163641" lon="-84.106173"><ele>1110.3333333333333</ele><time>2026-04-02T21:49:03.921Z</time></trkpt><trkpt lat="9.9161447" lon="-84.1061394"><ele>1111.0</ele><time>2026-04-02T21:49:04.921Z</time></trkpt><trkpt lat="9.9159177" lon="-84.1061085"><ele>1112.5</ele><time>2026-04-02T21:49:05.921Z</time></trkpt><trkpt lat="9.915686" lon="-84.1060779"><ele>1114.0</ele><time>2026-04-02T21:49:06.921Z</time></trkpt><trkpt lat="9.915452" lon="-84.1060421"><ele>1114.0</ele><time>2026-04-02T21:49:07.921Z</time></trkpt><trkpt lat="9.9152173" lon="-84.1060057"><ele>1114.0</ele><time>2026-04-02T21:49:08.92Z</time></trkpt><trkpt lat="9.9149906" lon="-84.1059693"><ele>1113.0</ele><time>2026-04-02T21:49:09.921Z</time></trkpt><trkpt lat="9.9147722" lon="-84.1059324"><ele>1112.0</ele><time>2026-04-02T21:49:10.921Z</time></trkpt><trkpt lat="9.9145771" lon="-84.1058969"><ele>1111.0</ele><time>2026-04-02T21:49:11.922Z</time></trkpt><trkpt lat="9.9143807" lon="-84.1058513"><ele>1110.6666666666665</ele><time>2026-04-02T21:49:12.921Z</time></trkpt><trkpt lat="9.9141904" lon="-84.1057791"><ele>1110.3333333333333</ele><time>2026-04-02T21:49:13.922Z</time></trkpt><trkpt lat="9.9140037" lon="-84.1056955"><ele>1110.0</ele><time>2026-04-02T21:49:14.922Z</time></trkpt><trkpt lat="9.9138125" lon="-84.1055882"><ele>1110.0</ele><time>2026-04-02T21:49:15.921Z</time></trkpt><trkpt lat="9.9136314" lon="-84.1054591"><ele>1110.0</ele><time>2026-04-02T21:49:16.922Z</time></trkpt><trkpt lat="9.9134516" lon="-84.1053016"><ele>1110.3333333333333</ele><time>2026-04-02T21:49:17.922Z</time></trkpt><trkpt lat="9.9132946" lon="-84.1051368"><ele>1110.6666666666665</ele><time>2026-04-02T21:49:18.922Z</time></trkpt><trkpt lat="9.913156" lon="-84.1049642"><ele>1111.0</ele><time>2026-04-02T21:49:19.921Z</time></trkpt><trkpt lat="9.9130386" lon="-84.104787"><ele>1111.0</ele><time>2026-04-02T21:49:20.921Z</time></trkpt><trkpt lat="9.912933" lon="-84.1045891"><ele>1111.0</ele><time>2026-04-02T21:49:21.921Z</time></trkpt><trkpt lat="9.9128427" lon="-84.1043816"><ele>1111.0</ele><time>2026-04-02T21:49:22.921Z</time></trkpt><trkpt lat="9.9127638" lon="-84.1041664"><ele>1112.6666666666665</ele><time>2026-04-02T21:49:23.921Z</time></trkpt><trkpt lat="9.9126959" lon="-84.1039619"><ele>1114.3333333333333</ele><time>2026-04-02T21:49:24.921Z</time></trkpt><trkpt lat="9.912631" lon="-84.1037696"><ele>1116.0</ele><time>2026-04-02T21:49:25.922Z</time></trkpt><trkpt lat="9.9125708" lon="-84.1035927"><ele>1116.6666666666667</ele><time>2026-04-02T21:49:26.921Z</time></trkpt><trkpt lat="9.9125063" lon="-84.1034166"><ele>1117.3333333333335</ele><time>2026-04-02T21:49:27.92Z</time></trkpt><trkpt lat="9.9124452" lon="-84.103244"><ele>1118.0</ele><time>2026-04-02T21:49:28.921Z</time></trkpt><trkpt lat="9.9123911" lon="-84.1030848"><ele>1119.3333333333335</ele><time>2026-04-02T21:49:29.922Z</time></trkpt><trkpt lat="9.9123374" lon="-84.1029227"><ele>1120.6666666666667</ele><time>2026-04-02T21:49:30.922Z</time></trkpt><trkpt lat="9.9122805" lon="-84.1027597"><ele>1122.0</ele><time>2026-04-02T21:49:31.92Z</time></trkpt><trkpt lat="9.9122197" lon="-84.1025921"><ele>1122.0</ele><time>2026-04-02T21:49:32.921Z</time></trkpt><trkpt lat="9.9121575" lon="-84.1024261"><ele>1122.0</ele><time>2026-04-02T21:49:33.922Z</time></trkpt><trkpt lat="9.9120945" lon="-84.102268"><ele>1122.0</ele><time>2026-04-02T21:49:34.921Z</time></trkpt><trkpt lat="9.9120314" lon="-84.1021181"><ele>1122.25</ele><time>2026-04-02T21:49:35.922Z</time></trkpt><trkpt lat="9.9119757" lon="-84.1019773"><ele>1122.5</ele><time>2026-04-02T21:49:36.921Z</time></trkpt><trkpt lat="9.9119308" lon="-84.1018489"><ele>1122.75</ele><time>2026-04-02T21:49:37.92Z</time></trkpt><trkpt lat="9.9118838" lon="-84.1017211"><ele>1123.0</ele><time>2026-04-02T21:49:38.921Z</time></trkpt><trkpt lat="9.9118429" lon="-84.10161"><ele>1123.2</ele><time>2026-04-02T21:49:39.921Z</time></trkpt><trkpt lat="9.9118049" lon="-84.1015081"><ele>1123.4</ele><time>2026-04-02T21:49:40.921Z</time></trkpt><trkpt lat="9.9117677" lon="-84.1014074"><ele>1123.6000000000001</ele><time>2026-04-02T21:49:41.921Z</time></trkpt><trkpt lat="9.9117303" lon="-84.1013106"><ele>1123.8</ele><time>2026-04-02T21:49:42.92Z</time></trkpt><trkpt lat="9.9116955" lon="-84.1012141"><ele>1124.0</ele><time>2026-04-02T21:49:43.921Z</time></trkpt><trkpt lat="9.911666" lon="-84.1011212"><ele>1123.5</ele><time>2026-04-02T21:49:44.922Z</time></trkpt><trkpt lat="9.9116358" lon="-84.1010407"><ele>1123.0</ele><time>2026-04-02T21:49:45.92Z</time></trkpt><trkpt lat="9.9116092" lon="-84.1009678"><ele>1122.5</ele><time>2026-04-02T21:49:46.922Z</time></trkpt><trkpt lat="9.9115846" lon="-84.1008994"><ele>1122.0</ele><time>2026-04-02T21:49:47.922Z</time></trkpt><trkpt lat="9.9115485" lon="-84.100825"><ele>1121.5</ele><time>2026-04-02T21:49:48.921Z</time></trkpt><trkpt lat="9.9115251" lon="-84.1007436"><ele>1121.0</ele><time>2026-04-02T21:49:49.921Z</time></trkpt><trkpt lat="9.9114945" lon="-84.1006569"><ele>1120.75</ele><time>2026-04-02T21:49:50.921Z</time></trkpt><trkpt lat="9.9114601" lon="-84.1005571"><ele>1120.5</ele><time>2026-04-02T21:49:51.921Z</time></trkpt><trkpt lat="9.911424" lon="-84.1004456"><ele>1120.25</ele><time>2026-04-02T21:49:52.922Z</time></trkpt><trkpt lat="9.911383" lon="-84.1003265"><ele>1120.0</ele><time>2026-04-02T21:49:53.921Z</time></trkpt><trkpt lat="9.9113404" lon="-84.1002121"><ele>1120.0</ele><time>2026-04-02T21:49:54.922Z</time></trkpt><trkpt lat="9.9113025" lon="-84.1000966"><ele>1120.0</ele><time>2026-04-02T21:49:55.921Z</time></trkpt><trkpt lat="9.9112698" lon="-84.0999983"><ele>1120.0</ele><time>2026-04-02T21:49:56.922Z</time></trkpt><trkpt lat="9.9112451" lon="-84.0999075"><ele>1120.0</ele><time>2026-04-02T21:49:57.921Z</time></trkpt><trkpt lat="9.9112185" lon="-84.0998316"><ele>1120.0</ele><time>2026-04-02T21:49:58.922Z</time></trkpt><trkpt lat="9.9111824" lon="-84.0997612"><ele>1119.6</ele><time>2026-04-02T21:49:59.921Z</time></trkpt><trkpt lat="9.9111228" lon="-84.0997083"><ele>1119.2</ele><time>2026-04-02T21:50:00.921Z</time></trkpt><trkpt lat="9.9110492" lon="-84.0996745"><ele>1118.8</ele><time>2026-04-02T21:50:01.921Z</time></trkpt><trkpt lat="9.9109603" lon="-84.0996319"><ele>1118.4</ele><time>2026-04-02T21:50:02.92Z</time></trkpt><trkpt lat="9.9108829" lon="-84.0995717"><ele>1118.0</ele><time>2026-04-02T21:50:03.923Z</time></trkpt><trkpt lat="9.9108149" lon="-84.0994773"><ele>1118.0</ele><time>2026-04-02T21:50:04.921Z</time></trkpt><trkpt lat="9.9107373" lon="-84.0993939"><ele>1118.0</ele><time>2026-04-02T21:50:05.922Z</time></trkpt><trkpt lat="9.9106444" lon="-84.0993397"><ele>1118.0</ele><time>2026-04-02T21:50:06.921Z</time></trkpt><trkpt lat="9.9105378" lon="-84.0992993"><ele>1118.0</ele><time>2026-04-02T21:50:07.921Z</time></trkpt><trkpt lat="9.9104249" lon="-84.0992605"><ele>1118.0</ele><time>2026-04-02T21:50:08.921Z</time></trkpt><trkpt lat="9.9102984" lon="-84.0992265"><ele>1118.0</ele><time>2026-04-02T21:50:09.922Z</time></trkpt><trkpt lat="9.9101752" lon="-84.0991926"><ele>1118.0</ele><time>2026-04-02T21:50:10.921Z</time></trkpt><trkpt lat="9.9100638" lon="-84.0991595"><ele>1118.0</ele><time>2026-04-02T21:50:11.921Z</time></trkpt><trkpt lat="9.9099589" lon="-84.0991274"><ele>1118.5</ele><time>2026-04-02T21:50:12.92Z</time></trkpt><trkpt lat="9.9098495" lon="-84.0990872"><ele>1119.0</ele><time>2026-04-02T21:50:13.922Z</time></trkpt><trkpt lat="9.9097471" lon="-84.0990336"><ele>1119.5</ele><time>2026-04-02T21:50:14.921Z</time></trkpt><trkpt lat="9.9096381" lon="-84.0989764"><ele>1120.0</ele><time>2026-04-02T21:50:15.922Z</time></trkpt><trkpt lat="9.9095435" lon="-84.0989123"><ele>1120.0</ele><time>2026-04-02T21:50:16.921Z</time></trkpt><trkpt lat="9.9094503" lon="-84.09885"><ele>1120.0</ele><time>2026-04-02T21:50:17.921Z</time></trkpt><trkpt lat="9.9093629" lon="-84.0987866"><ele>1120.0</ele><time>2026-04-02T21:50:18.92Z</time></trkpt><trkpt lat="9.9092763" lon="-84.0987242"><ele>1120.0</ele><time>2026-04-02T21:50:19.921Z</time></trkpt><trkpt lat="9.9091953" lon="-84.0986707"><ele>1120.0</ele><time>2026-04-02T21:50:20.92Z</time></trkpt><trkpt lat="9.9091176" lon="-84.0986287"><ele>1119.3333333333333</ele><time>2026-04-02T21:50:21.922Z</time></trkpt><trkpt lat="9.9090361" lon="-84.0986045"><ele>1118.6666666666665</ele><time>2026-04-02T21:50:22.921Z</time></trkpt><trkpt lat="9.908955" lon="-84.0985991"><ele>1118.0</ele><time>2026-04-02T21:50:23.921Z</time></trkpt><trkpt lat="9.9088746" lon="-84.098609"><ele>1117.3333333333333</ele><time>2026-04-02T21:50:24.921Z</time></trkpt><trkpt lat="9.9087989" lon="-84.0986348"><ele>1116.6666666666667</ele><time>2026-04-02T21:50:25.921Z</time></trkpt><trkpt lat="9.9087314" lon="-84.0986742"><ele>1116.0</ele><time>2026-04-02T21:50:26.922Z</time></trkpt><trkpt lat="9.908676" lon="-84.0987239"><ele>1116.0</ele><time>2026-04-02T21:50:27.921Z</time></trkpt><trkpt lat="9.9086324" lon="-84.0988015"><ele>1116.0</ele><time>2026-04-02T21:50:28.921Z</time></trkpt><trkpt lat="9.9086024" lon="-84.0988943"><ele>1116.0</ele><time>2026-04-02T21:50:29.921Z</time></trkpt><trkpt lat="9.9085966" lon="-84.0989895"><ele>1116.0</ele><time>2026-04-02T21:50:30.921Z</time></trkpt><trkpt lat="9.9086276" lon="-84.0990819"><ele>1116.0</ele><time>2026-04-02T21:50:31.921Z</time></trkpt><trkpt lat="9.9086721" lon="-84.0991601"><ele>1115.6666666666667</ele><time>2026-04-02T21:50:32.922Z</time></trkpt><trkpt lat="9.9087296" lon="-84.0992284"><ele>1115.3333333333333</ele><time>2026-04-02T21:50:33.921Z</time></trkpt><trkpt lat="9.9088002" lon="-84.0992895"><ele>1115.0</ele><time>2026-04-02T21:50:34.921Z</time></trkpt><trkpt lat="9.9088646" lon="-84.0993582"><ele>1114.6666666666665</ele><time>2026-04-02T21:50:35.921Z</time></trkpt><trkpt lat="9.9089186" lon="-84.0994224"><ele>1114.3333333333333</ele><time>2026-04-02T21:50:36.921Z</time></trkpt><trkpt lat="9.9089625" lon="-84.0994975"><ele>1114.0</ele><time>2026-04-02T21:50:37.921Z</time></trkpt><trkpt lat="9.9089831" lon="-84.0995734"><ele>1114.0</ele><time>2026-04-02T21:50:38.921Z</time></trkpt><trkpt lat="9.9089944" lon="-84.0996683"><ele>1114.0</ele><time>2026-04-02T21:50:39.921Z</time></trkpt><trkpt lat="9.9089697" lon="-84.0997603"><ele>1114.0</ele><time>2026-04-02T21:50:40.921Z</time></trkpt><trkpt lat="9.9089423" lon="-84.0998634"><ele>1114.0</ele><time>2026-04-02T21:50:41.92Z</time></trkpt><trkpt lat="9.9089106" lon="-84.0999756"><ele>1114.0</ele><time>2026-04-02T21:50:42.922Z</time></trkpt><trkpt lat="9.9088689" lon="-84.1000916"><ele>1111.0</ele><time>2026-04-02T21:50:43.92Z</time></trkpt><trkpt lat="9.9088272" lon="-84.1001973"><ele>1108.0</ele><time>2026-04-02T21:50:44.921Z</time></trkpt><trkpt lat="9.9087814" lon="-84.1002894"><ele>1105.0</ele><time>2026-04-02T21:50:45.921Z</time></trkpt><trkpt lat="9.9087288" lon="-84.1003657"><ele>1102.0</ele><time>2026-04-02T21:50:46.921Z</time></trkpt><trkpt lat="9.9086617" lon="-84.1004343"><ele>1099.0</ele><time>2026-04-02T21:50:47.922Z</time></trkpt><trkpt lat="9.9085722" lon="-84.1004748"><ele>1099.0</ele><time>2026-04-02T21:50:48.922Z</time></trkpt><trkpt lat="9.9084847" lon="-84.1005149"><ele>1099.0</ele><time>2026-04-02T21:50:49.92Z</time></trkpt><trkpt lat="9.9083837" lon="-84.100527"><ele>1099.0</ele><time>2026-04-02T21:50:50.92Z</time></trkpt><trkpt lat="9.9082982" lon="-84.1005145"><ele>1099.0</ele><time>2026-04-02T21:50:51.921Z</time></trkpt><trkpt lat="9.9082148" lon="-84.1004562"><ele>1099.0</ele><time>2026-04-02T21:50:52.921Z</time></trkpt><trkpt lat="9.9081344" lon="-84.1003992"><ele>1099.25</ele><time>2026-04-02T21:50:53.921Z</time></trkpt><trkpt lat="9.9080423" lon="-84.1003327"><ele>1099.5</ele><time>2026-04-02T21:50:54.921Z</time></trkpt><trkpt lat="9.9079425" lon="-84.1002616"><ele>1099.75</ele><time>2026-04-02T21:50:55.921Z</time></trkpt><trkpt lat="9.9078231" lon="-84.1002002"><ele>1100.0</ele><time>2026-04-02T21:50:56.922Z</time></trkpt><trkpt lat="9.9077012" lon="-84.1001102"><ele>1100.0</ele><time>2026-04-02T21:50:57.921Z</time></trkpt><trkpt lat="9.9075789" lon="-84.1000292"><ele>1100.0</ele><time>2026-04-02T21:50:58.922Z</time></trkpt><trkpt lat="9.907449" lon="-84.0999614"><ele>1100.0</ele><time>2026-04-02T21:50:59.922Z</time></trkpt><trkpt lat="9.9073424" lon="-84.0998795"><ele>1100.0</ele><time>2026-04-02T21:51:00.922Z</time></trkpt><trkpt lat="9.9072284" lon="-84.0998036"><ele>1101.5</ele><time>2026-04-02T21:51:01.921Z</time></trkpt><trkpt lat="9.9071233" lon="-84.0997325"><ele>1103.0</ele><time>2026-04-02T21:51:02.922Z</time></trkpt><trkpt lat="9.9070208" lon="-84.0996745"><ele>1104.5</ele><time>2026-04-02T21:51:03.921Z</time></trkpt><trkpt lat="9.9069168" lon="-84.0996336"><ele>1106.0</ele><time>2026-04-02T21:51:04.921Z</time></trkpt><trkpt lat="9.9068129" lon="-84.0996215"><ele>1108.75</ele><time>2026-04-02T21:51:05.921Z</time></trkpt><trkpt lat="9.9066994" lon="-84.099626"><ele>1111.5</ele><time>2026-04-02T21:51:06.921Z</time></trkpt><trkpt lat="9.9065989" lon="-84.0996663"><ele>1114.25</ele><time>2026-04-02T21:51:07.921Z</time></trkpt><trkpt lat="9.9065038" lon="-84.099751"><ele>1117.0</ele><time>2026-04-02T21:51:08.921Z</time></trkpt><trkpt lat="9.9064271" lon="-84.0998366"><ele>1119.0</ele><time>2026-04-02T21:51:09.921Z</time></trkpt><trkpt lat="9.9063625" lon="-84.0999186"><ele>1121.0</ele><time>2026-04-02T21:51:10.921Z</time></trkpt><trkpt lat="9.9062884" lon="-84.100004"><ele>1123.0</ele><time>2026-04-02T21:51:11.921Z</time></trkpt><trkpt lat="9.9062044" lon="-84.1000786"><ele>1125.0</ele><time>2026-04-02T21:51:12.921Z</time></trkpt><trkpt lat="9.9061086" lon="-84.1001546"><ele>1127.0</ele><time>2026-04-02T21:51:13.921Z</time></trkpt><trkpt lat="9.9060019" lon="-84.1001973"><ele>1127.4</ele><time>2026-04-02T21:51:14.921Z</time></trkpt><trkpt lat="9.9058977" lon="-84.1002295"><ele>1127.8000000000002</ele><time>2026-04-02T21:51:15.922Z</time></trkpt><trkpt lat="9.9058039" lon="-84.1002526"><ele>1128.2</ele><time>2026-04-02T21:51:16.92Z</time></trkpt><trkpt lat="9.905707" lon="-84.1002573"><ele>1128.6000000000001</ele><time>2026-04-02T21:51:17.921Z</time></trkpt><trkpt lat="9.9056269" lon="-84.1002532"><ele>1129.0</ele><time>2026-04-02T21:51:18.921Z</time></trkpt><trkpt lat="9.9055521" lon="-84.100243"><ele>1129.0</ele><time>2026-04-02T21:51:19.921Z</time></trkpt><trkpt lat="9.905475" lon="-84.1002267"><ele>1129.0</ele><time>2026-04-02T21:51:20.921Z</time></trkpt><trkpt lat="9.9053967" lon="-84.1002094"><ele>1129.0</ele><time>2026-04-02T21:51:21.921Z</time></trkpt><trkpt lat="9.9053305" lon="-84.1001964"><ele>1129.0</ele><time>2026-04-02T21:51:22.921Z</time></trkpt><trkpt lat="9.9052123" lon="-84.1001691"><ele>1129.0</ele><time>2026-04-02T21:51:24.921Z</time></trkpt><trkpt lat="9.9051431" lon="-84.1001506"><ele>1129.0</ele><time>2026-04-02T21:51:26.92Z</time></trkpt><trkpt lat="9.9050698" lon="-84.1001055"><ele>1129.1666666666665</ele><time>2026-04-02T21:51:32.921Z</time></trkpt><trkpt lat="9.9050614" lon="-84.1000417"><ele>1129.3333333333333</ele><time>2026-04-02T21:51:33.92Z</time></trkpt><trkpt lat="9.9050738" lon="-84.0999426"><ele>1129.5</ele><time>2026-04-02T21:51:34.922Z</time></trkpt><trkpt lat="9.9050864" lon="-84.0998557"><ele>1129.6666666666667</ele><time>2026-04-02T21:51:35.921Z</time></trkpt><trkpt lat="9.9050935" lon="-84.0997829"><ele>1129.8333333333335</ele><time>2026-04-02T21:51:36.921Z</time></trkpt><trkpt lat="9.9051087" lon="-84.0996871"><ele>1130.0</ele><time>2026-04-02T21:51:38.921Z</time></trkpt><trkpt lat="9.9051205" lon="-84.0995766"><ele>1129.5</ele><time>2026-04-02T21:51:40.921Z</time></trkpt><trkpt lat="9.9051339" lon="-84.0994947"><ele>1129.0</ele><time>2026-04-02T21:51:41.92Z</time></trkpt><trkpt lat="9.9051491" lon="-84.0994221"><ele>1128.5</ele><time>2026-04-02T21:51:42.921Z</time></trkpt><trkpt lat="9.9051567" lon="-84.099354"><ele>1128.0</ele><time>2026-04-02T21:51:43.921Z</time></trkpt><trkpt lat="9.9050613" lon="-84.0992848"><ele>1127.5</ele><time>2026-04-02T21:51:45.921Z</time></trkpt><trkpt lat="9.9049873" lon="-84.0992663"><ele>1127.0</ele><time>2026-04-02T21:51:46.92Z</time></trkpt><trkpt lat="9.9049024" lon="-84.0992611"><ele>1127.0</ele><time>2026-04-02T21:51:47.921Z</time></trkpt><trkpt lat="9.9048192" lon="-84.0992468"><ele>1127.0</ele><time>2026-04-02T21:51:48.921Z</time></trkpt><trkpt lat="9.9047507" lon="-84.0992299"><ele>1127.0</ele><time>2026-04-02T21:51:49.921Z</time></trkpt><trkpt lat="9.9046436" lon="-84.0991701"><ele>1127.0</ele><time>2026-04-02T21:51:51.922Z</time></trkpt><trkpt lat="9.9046153" lon="-84.0990822"><ele>1127.0</ele><time>2026-04-02T21:51:52.92Z</time></trkpt><trkpt lat="9.9045755" lon="-84.0989938"><ele>1125.0</ele><time>2026-04-02T21:51:53.921Z</time></trkpt><trkpt lat="9.9045351" lon="-84.0989015"><ele>1123.0</ele><time>2026-04-02T21:51:54.922Z</time></trkpt><trkpt lat="9.9044959" lon="-84.0988154"><ele>1121.0</ele><time>2026-04-02T21:51:55.921Z</time></trkpt><trkpt lat="9.9044587" lon="-84.0987337"><ele>1119.0</ele><time>2026-04-02T21:51:56.921Z</time></trkpt><trkpt lat="9.9044307" lon="-84.0986697"><ele>1117.0</ele><time>2026-04-02T21:51:57.921Z</time></trkpt><trkpt lat="9.9043973" lon="-84.0985856"><ele>1115.0</ele><time>2026-04-02T21:51:59.921Z</time></trkpt><trkpt lat="9.9043647" lon="-84.0985096"><ele>1115.0</ele><time>2026-04-02T21:52:01.921Z</time></trkpt><trkpt lat="9.9043165" lon="-84.0983982"><ele>1115.0</ele><time>2026-04-02T21:52:03.921Z</time></trkpt><trkpt lat="9.9042939" lon="-84.0983352"><ele>1115.0</ele><time>2026-04-02T21:52:04.921Z</time></trkpt><trkpt lat="9.9042692" lon="-84.0982462"><ele>1115.0</ele><time>2026-04-02T21:52:06.921Z</time></trkpt><trkpt lat="9.904233" lon="-84.0981313"><ele>1115.0</ele><time>2026-04-02T21:52:09.92Z</time></trkpt><trkpt lat="9.9041975" lon="-84.0980632"><ele>1115.6666666666667</ele><time>2026-04-02T21:52:10.922Z</time></trkpt><trkpt lat="9.9041409" lon="-84.0979753"><ele>1116.3333333333335</ele><time>2026-04-02T21:52:11.92Z</time></trkpt><trkpt lat="9.9040725" lon="-84.0979013"><ele>1117.0</ele><time>2026-04-02T21:52:12.921Z</time></trkpt><trkpt lat="9.9040107" lon="-84.0978354"><ele>1117.6666666666667</ele><time>2026-04-02T21:52:13.92Z</time></trkpt><trkpt lat="9.9039556" lon="-84.0977855"><ele>1118.3333333333333</ele><time>2026-04-02T21:52:14.92Z</time></trkpt><trkpt lat="9.9039078" lon="-84.0977344"><ele>1119.0</ele><time>2026-04-02T21:52:15.921Z</time></trkpt><trkpt lat="9.9038273" lon="-84.0976791"><ele>1119.0</ele><time>2026-04-02T21:52:17.921Z</time></trkpt><trkpt lat="9.9037783" lon="-84.097633"><ele>1119.0</ele><time>2026-04-02T21:52:20.921Z</time></trkpt><trkpt lat="9.9037134" lon="-84.0975035"><ele>1119.0</ele><time>2026-04-02T21:52:22.921Z</time></trkpt><trkpt lat="9.9036716" lon="-84.0974106"><ele>1119.0</ele><time>2026-04-02T21:52:23.921Z</time></trkpt><trkpt lat="9.9036361" lon="-84.0973188"><ele>1119.0</ele><time>2026-04-02T21:52:24.921Z</time></trkpt><trkpt lat="9.9035861" lon="-84.0972201"><ele>1117.4</ele><time>2026-04-02T21:52:25.921Z</time></trkpt><trkpt lat="9.9035401" lon="-84.0971311"><ele>1115.8000000000002</ele><time>2026-04-02T21:52:26.921Z</time></trkpt><trkpt lat="9.9034893" lon="-84.0970439"><ele>1114.1999999999998</ele><time>2026-04-02T21:52:27.921Z</time></trkpt><trkpt lat="9.9034522" lon="-84.0969567"><ele>1112.6</ele><time>2026-04-02T21:52:28.922Z</time></trkpt><trkpt lat="9.9034056" lon="-84.0968657"><ele>1111.0</ele><time>2026-04-02T21:52:29.921Z</time></trkpt><trkpt lat="9.9033619" lon="-84.0967801"><ele>1111.0</ele><time>2026-04-02T21:52:30.921Z</time></trkpt><trkpt lat="9.9033154" lon="-84.0966976"><ele>1111.0</ele><time>2026-04-02T21:52:31.921Z</time></trkpt><trkpt lat="9.903273" lon="-84.0966196"><ele>1111.0</ele><time>2026-04-02T21:52:32.921Z</time></trkpt><trkpt lat="9.8998397" lon="-84.0939743"><ele>1111.3999999999999</ele><time>2026-04-02T21:53:30.921Z</time></trkpt><trkpt lat="9.8997323" lon="-84.0939329"><ele>1111.8</ele><time>2026-04-02T21:53:31.922Z</time></trkpt><trkpt lat="9.8996234" lon="-84.0938985"><ele>1112.1999999999998</ele><time>2026-04-02T21:53:32.922Z</time></trkpt><trkpt lat="9.8995204" lon="-84.0938699"><ele>1112.6</ele><time>2026-04-02T21:53:33.921Z</time></trkpt><trkpt lat="9.8994254" lon="-84.0938318"><ele>1113.0</ele><time>2026-04-02T21:53:34.92Z</time></trkpt><trkpt lat="9.8993415" lon="-84.0937964"><ele>1113.0</ele><time>2026-04-02T21:53:35.921Z</time></trkpt><trkpt lat="9.8992606" lon="-84.093755"><ele>1113.0</ele><time>2026-04-02T21:53:36.921Z</time></trkpt><trkpt lat="9.8991831" lon="-84.0937074"><ele>1113.0</ele><time>2026-04-02T21:53:37.92Z</time></trkpt><trkpt lat="9.8991143" lon="-84.0936638"><ele>1113.0</ele><time>2026-04-02T21:53:38.921Z</time></trkpt><trkpt lat="9.8990287" lon="-84.0936147"><ele>1113.0</ele><time>2026-04-02T21:53:40.92Z</time></trkpt><trkpt lat="9.8989566" lon="-84.0935637"><ele>1113.0</ele><time>2026-04-02T21:53:43.922Z</time></trkpt><trkpt lat="9.8987895" lon="-84.0934387"><ele>1113.1666666666667</ele><time>2026-04-02T21:53:46.921Z</time></trkpt><trkpt lat="9.898721" lon="-84.0933833"><ele>1113.3333333333333</ele><time>2026-04-02T21:53:47.922Z</time></trkpt><trkpt lat="9.8986542" lon="-84.0933282"><ele>1113.5</ele><time>2026-04-02T21:53:48.919Z</time></trkpt><trkpt lat="9.8986013" lon="-84.0932737"><ele>1113.6666666666665</ele><time>2026-04-02T21:53:49.921Z</time></trkpt><trkpt lat="9.8985476" lon="-84.0932159"><ele>1113.8333333333333</ele><time>2026-04-02T21:53:50.922Z</time></trkpt><trkpt lat="9.8984934" lon="-84.093163"><ele>1114.0</ele><time>2026-04-02T21:53:51.921Z</time></trkpt><trkpt lat="9.8984233" lon="-84.0930866"><ele>1114.2</ele><time>2026-04-02T21:53:53.921Z</time></trkpt><trkpt lat="9.898374" lon="-84.0930438"><ele>1114.4</ele><time>2026-04-02T21:53:55.921Z</time></trkpt><trkpt lat="9.898324" lon="-84.0929913"><ele>1114.6</ele><time>2026-04-02T21:53:57.92Z</time></trkpt><trkpt lat="9.8982244" lon="-84.0928942"><ele>1114.8</ele><time>2026-04-02T21:53:59.92Z</time></trkpt><trkpt lat="9.8981592" lon="-84.0928273"><ele>1115.0</ele><time>2026-04-02T21:54:00.921Z</time></trkpt><trkpt lat="9.898095" lon="-84.0927721"><ele>1115.0</ele><time>2026-04-02T21:54:01.921Z</time></trkpt><trkpt lat="9.8980378" lon="-84.0927211"><ele>1115.0</ele><time>2026-04-02T21:54:02.921Z</time></trkpt><trkpt lat="9.897989" lon="-84.0926735"><ele>1115.0</ele><time>2026-04-02T21:54:03.92Z</time></trkpt><trkpt lat="9.8979383" lon="-84.092608"><ele>1115.0</ele><time>2026-04-02T21:54:04.921Z</time></trkpt><trkpt lat="9.8978487" lon="-84.0924881"><ele>1115.0</ele><time>2026-04-02T21:54:06.921Z</time></trkpt><trkpt lat="9.897778" lon="-84.0923969"><ele>1115.0</ele><time>2026-04-02T21:54:08.922Z</time></trkpt><trkpt lat="9.8978026" lon="-84.0923141"><ele>1115.0</ele><time>2026-04-02T21:54:10.92Z</time></trkpt><trkpt lat="9.8978914" lon="-84.0922541"><ele>1115.0</ele><time>2026-04-02T21:54:12.922Z</time></trkpt><trkpt lat="9.8979899" lon="-84.0922325"><ele>1115.0</ele><time>2026-04-02T21:54:14.921Z</time></trkpt><trkpt lat="9.8980742" lon="-84.0922057"><ele>1115.0</ele><time>2026-04-02T21:54:16.92Z</time></trkpt><trkpt lat="9.8981579" lon="-84.0921909"><ele>1115.0</ele><time>2026-04-02T21:54:18.92Z</time></trkpt><trkpt lat="9.8982365" lon="-84.0921839"><ele>1115.0</ele><time>2026-04-02T21:54:19.921Z</time></trkpt><trkpt lat="9.8983813" lon="-84.0921749"><ele>1115.0</ele><time>2026-04-02T21:54:21.921Z</time></trkpt><trkpt lat="9.8984624" lon="-84.0921738"><ele>1115.0</ele><time>2026-04-02T21:54:22.921Z</time></trkpt><trkpt lat="9.8985373" lon="-84.0921706"><ele>1115.0</ele><time>2026-04-02T21:54:23.921Z</time></trkpt><trkpt lat="9.8986612" lon="-84.092166"><ele>1114.75</ele><time>2026-04-02T21:54:25.921Z</time></trkpt><trkpt lat="9.8988724" lon="-84.0921778"><ele>1114.5</ele><time>2026-04-02T21:54:29.921Z</time></trkpt><trkpt lat="9.8989559" lon="-84.0922139"><ele>1114.25</ele><time>2026-04-02T21:54:31.921Z</time></trkpt><trkpt lat="9.8990344" lon="-84.0922153"><ele>1114.0</ele><time>2026-04-02T21:54:33.921Z</time></trkpt><trkpt lat="9.8991046" lon="-84.0921689"><ele>1114.0</ele><time>2026-04-02T21:54:36.921Z</time></trkpt><trkpt lat="9.8991192" lon="-84.0921022"><ele>1114.0</ele><time>2026-04-02T21:54:39.92Z</time></trkpt><trkpt lat="9.89914" lon="-84.0920301"><ele>1114.0</ele><time>2026-04-02T21:54:42.921Z</time></trkpt><trkpt lat="9.8991981" lon="-84.0919571"><ele>1114.0</ele><time>2026-04-02T21:54:45.92Z</time></trkpt><trkpt lat="9.8992621" lon="-84.091923"><ele>1111.0</ele><time>2026-04-02T21:54:47.921Z</time></trkpt></trkseg></trk></gpx>